<?xml version="1.0" encoding="UTF-8" standalone="no" ?>
<gpx xmlns="http://www.topografix.com/GPX/1/1" xmlns:xsi="http://www.w3.org/2001/XMLSchema-instance" xsi:schemaLocation="http://www.topografix.com/GPX/1/1 http://www.topografix.com/GPX/1/1/gpx.xsd" version="1.1" creator="VisuGPX - https://www.visugpx.com">
  <metadata>
    <name>13142180-Route Chanteau- 100K</name>
  </metadata>
  <trk>
    <name><![CDATA[13142180-Route Chanteau- 100K]]></name>
    <trkseg>
      <trkpt lat="47.91001" lon="1.96162">
        <ele>110</ele>
        <time>2021-05-28T21:09:18Z</time>
      </trkpt>
      <trkpt lat="47.90972" lon="1.9616">
        <ele>109</ele>
        <time>2021-05-28T21:09:23Z</time>
      </trkpt>
      <trkpt lat="47.9098" lon="1.96369">
        <ele>109</ele>
        <time>2021-05-28T21:09:48Z</time>
      </trkpt>
      <trkpt lat="47.90889" lon="1.9637">
        <ele>108</ele>
        <time>2021-05-28T21:10:04Z</time>
      </trkpt>
      <trkpt lat="47.9077" lon="1.96391">
        <ele>105</ele>
        <time>2021-05-28T21:10:26Z</time>
      </trkpt>
      <trkpt lat="47.90801" lon="1.96757">
        <ele>105</ele>
        <time>2021-05-28T21:11:10Z</time>
      </trkpt>
      <trkpt lat="47.90804" lon="1.9683">
        <ele>105</ele>
        <time>2021-05-28T21:11:18Z</time>
      </trkpt>
      <trkpt lat="47.90794" lon="1.9685">
        <ele>106</ele>
        <time>2021-05-28T21:11:21Z</time>
      </trkpt>
      <trkpt lat="47.90792" lon="1.96861">
        <ele>106</ele>
        <time>2021-05-28T21:11:23Z</time>
      </trkpt>
      <trkpt lat="47.90799" lon="1.96879">
        <ele>107</ele>
        <time>2021-05-28T21:11:25Z</time>
      </trkpt>
      <trkpt lat="47.90808" lon="1.96893">
        <ele>106</ele>
        <time>2021-05-28T21:11:27Z</time>
      </trkpt>
      <trkpt lat="47.90814" lon="1.96915">
        <ele>106</ele>
        <time>2021-05-28T21:11:30Z</time>
      </trkpt>
      <trkpt lat="47.90821" lon="1.97031">
        <ele>107</ele>
        <time>2021-05-28T21:11:44Z</time>
      </trkpt>
      <trkpt lat="47.90864" lon="1.97561">
        <ele>109</ele>
        <time>2021-05-28T21:12:48Z</time>
      </trkpt>
      <trkpt lat="47.90865" lon="1.97618">
        <ele>110</ele>
        <time>2021-05-28T21:12:55Z</time>
      </trkpt>
      <trkpt lat="47.90859" lon="1.97651">
        <ele>111</ele>
        <time>2021-05-28T21:12:59Z</time>
      </trkpt>
      <trkpt lat="47.90863" lon="1.97632">
        <ele>111</ele>
        <time>2021-05-28T21:13:01Z</time>
      </trkpt>
      <trkpt lat="47.90932" lon="1.97663">
        <ele>110</ele>
        <time>2021-05-28T21:13:14Z</time>
      </trkpt>
      <trkpt lat="47.90943" lon="1.97666">
        <ele>110</ele>
        <time>2021-05-28T21:13:16Z</time>
      </trkpt>
      <trkpt lat="47.90947" lon="1.97672">
        <ele>110</ele>
        <time>2021-05-28T21:13:17Z</time>
      </trkpt>
      <trkpt lat="47.90996" lon="1.97696">
        <ele>111</ele>
        <time>2021-05-28T21:13:26Z</time>
      </trkpt>
      <trkpt lat="47.91006" lon="1.97705">
        <ele>110</ele>
        <time>2021-05-28T21:13:28Z</time>
      </trkpt>
      <trkpt lat="47.91013" lon="1.97702">
        <ele>110</ele>
        <time>2021-05-28T21:13:30Z</time>
      </trkpt>
      <trkpt lat="47.91111" lon="1.9777">
        <ele>110</ele>
        <time>2021-05-28T21:13:49Z</time>
      </trkpt>
      <trkpt lat="47.9116" lon="1.97796">
        <ele>111</ele>
        <time>2021-05-28T21:13:58Z</time>
      </trkpt>
      <trkpt lat="47.91175" lon="1.97807">
        <ele>111</ele>
        <time>2021-05-28T21:14:01Z</time>
      </trkpt>
      <trkpt lat="47.91179" lon="1.97814">
        <ele>111</ele>
        <time>2021-05-28T21:14:02Z</time>
      </trkpt>
      <trkpt lat="47.91188" lon="1.97811">
        <ele>111</ele>
        <time>2021-05-28T21:14:04Z</time>
      </trkpt>
      <trkpt lat="47.91201" lon="1.97812">
        <ele>111</ele>
        <time>2021-05-28T21:14:06Z</time>
      </trkpt>
      <trkpt lat="47.91219" lon="1.9782">
        <ele>111</ele>
        <time>2021-05-28T21:14:09Z</time>
      </trkpt>
      <trkpt lat="47.91277" lon="1.97831">
        <ele>111</ele>
        <time>2021-05-28T21:14:20Z</time>
      </trkpt>
      <trkpt lat="47.91337" lon="1.97828">
        <ele>111</ele>
        <time>2021-05-28T21:14:30Z</time>
      </trkpt>
      <trkpt lat="47.91382" lon="1.97819">
        <ele>111</ele>
        <time>2021-05-28T21:14:39Z</time>
      </trkpt>
      <trkpt lat="47.91441" lon="1.978">
        <ele>111</ele>
        <time>2021-05-28T21:14:49Z</time>
      </trkpt>
      <trkpt lat="47.91446" lon="1.97808">
        <ele>111</ele>
        <time>2021-05-28T21:14:51Z</time>
      </trkpt>
      <trkpt lat="47.91449" lon="1.97808">
        <ele>111</ele>
        <time>2021-05-28T21:14:51Z</time>
      </trkpt>
      <trkpt lat="47.9146" lon="1.97798">
        <ele>112</ele>
        <time>2021-05-28T21:14:53Z</time>
      </trkpt>
      <trkpt lat="47.91467" lon="1.97795">
        <ele>112</ele>
        <time>2021-05-28T21:14:55Z</time>
      </trkpt>
      <trkpt lat="47.9167" lon="1.97744">
        <ele>112</ele>
        <time>2021-05-28T21:15:31Z</time>
      </trkpt>
      <trkpt lat="47.91688" lon="1.97736">
        <ele>112</ele>
        <time>2021-05-28T21:15:35Z</time>
      </trkpt>
      <trkpt lat="47.91706" lon="1.97776">
        <ele>112</ele>
        <time>2021-05-28T21:15:40Z</time>
      </trkpt>
      <trkpt lat="47.91928" lon="1.98344">
        <ele>113</ele>
        <time>2021-05-28T21:16:59Z</time>
      </trkpt>
      <trkpt lat="47.91976" lon="1.98472">
        <ele>114</ele>
        <time>2021-05-28T21:17:16Z</time>
      </trkpt>
      <trkpt lat="47.91998" lon="1.98523">
        <ele>114</ele>
        <time>2021-05-28T21:17:24Z</time>
      </trkpt>
      <trkpt lat="47.92346" lon="1.99089">
        <ele>116</ele>
        <time>2021-05-28T21:18:55Z</time>
      </trkpt>
      <trkpt lat="47.92368" lon="1.9914">
        <ele>115</ele>
        <time>2021-05-28T21:19:02Z</time>
      </trkpt>
      <trkpt lat="47.92402" lon="1.99192">
        <ele>116</ele>
        <time>2021-05-28T21:19:11Z</time>
      </trkpt>
      <trkpt lat="47.92412" lon="1.99213">
        <ele>116</ele>
        <time>2021-05-28T21:19:14Z</time>
      </trkpt>
      <trkpt lat="47.92414" lon="1.99221">
        <ele>116</ele>
        <time>2021-05-28T21:19:15Z</time>
      </trkpt>
      <trkpt lat="47.92414" lon="1.99258">
        <ele>116</ele>
        <time>2021-05-28T21:19:20Z</time>
      </trkpt>
      <trkpt lat="47.92416" lon="1.9927">
        <ele>116</ele>
        <time>2021-05-28T21:19:21Z</time>
      </trkpt>
      <trkpt lat="47.92424" lon="1.9929">
        <ele>115</ele>
        <time>2021-05-28T21:19:24Z</time>
      </trkpt>
      <trkpt lat="47.92436" lon="1.993">
        <ele>115</ele>
        <time>2021-05-28T21:19:26Z</time>
      </trkpt>
      <trkpt lat="47.92443" lon="1.99302">
        <ele>115</ele>
        <time>2021-05-28T21:19:28Z</time>
      </trkpt>
      <trkpt lat="47.92455" lon="1.99299">
        <ele>115</ele>
        <time>2021-05-28T21:19:30Z</time>
      </trkpt>
      <trkpt lat="47.92474" lon="1.99312">
        <ele>116</ele>
        <time>2021-05-28T21:19:33Z</time>
      </trkpt>
      <trkpt lat="47.92527" lon="1.99387">
        <ele>115</ele>
        <time>2021-05-28T21:19:46Z</time>
      </trkpt>
      <trkpt lat="47.92793" lon="1.99821">
        <ele>116</ele>
        <time>2021-05-28T21:20:57Z</time>
      </trkpt>
      <trkpt lat="47.92846" lon="1.99903">
        <ele>115</ele>
        <time>2021-05-28T21:21:10Z</time>
      </trkpt>
      <trkpt lat="47.92879" lon="1.99941">
        <ele>117</ele>
        <time>2021-05-28T21:21:18Z</time>
      </trkpt>
      <trkpt lat="47.92914" lon="1.99974">
        <ele>119</ele>
        <time>2021-05-28T21:21:25Z</time>
      </trkpt>
      <trkpt lat="47.92918" lon="1.99986">
        <ele>119</ele>
        <time>2021-05-28T21:21:26Z</time>
      </trkpt>
      <trkpt lat="47.92917" lon="1.99999">
        <ele>120</ele>
        <time>2021-05-28T21:21:28Z</time>
      </trkpt>
      <trkpt lat="47.92919" lon="2.0001">
        <ele>120</ele>
        <time>2021-05-28T21:21:29Z</time>
      </trkpt>
      <trkpt lat="47.92924" lon="2.00021">
        <ele>120</ele>
        <time>2021-05-28T21:21:31Z</time>
      </trkpt>
      <trkpt lat="47.92933" lon="2.00029">
        <ele>119</ele>
        <time>2021-05-28T21:21:33Z</time>
      </trkpt>
      <trkpt lat="47.92942" lon="2.00031">
        <ele>119</ele>
        <time>2021-05-28T21:21:34Z</time>
      </trkpt>
      <trkpt lat="47.92957" lon="2.00029">
        <ele>119</ele>
        <time>2021-05-28T21:21:37Z</time>
      </trkpt>
      <trkpt lat="47.92967" lon="2.00032">
        <ele>119</ele>
        <time>2021-05-28T21:21:39Z</time>
      </trkpt>
      <trkpt lat="47.93011" lon="2.0007">
        <ele>119</ele>
        <time>2021-05-28T21:21:48Z</time>
      </trkpt>
      <trkpt lat="47.93079" lon="2.00104">
        <ele>116</ele>
        <time>2021-05-28T21:22:01Z</time>
      </trkpt>
      <trkpt lat="47.93159" lon="2.00165">
        <ele>113</ele>
        <time>2021-05-28T21:22:17Z</time>
      </trkpt>
      <trkpt lat="47.93351" lon="2.0032">
        <ele>109</ele>
        <time>2021-05-28T21:22:56Z</time>
      </trkpt>
      <trkpt lat="47.93555" lon="2.00489">
        <ele>108</ele>
        <time>2021-05-28T21:23:37Z</time>
      </trkpt>
      <trkpt lat="47.93653" lon="2.00559">
        <ele>109</ele>
        <time>2021-05-28T21:23:56Z</time>
      </trkpt>
      <trkpt lat="47.93654" lon="2.00566">
        <ele>110</ele>
        <time>2021-05-28T21:23:57Z</time>
      </trkpt>
      <trkpt lat="47.93663" lon="2.00581">
        <ele>111</ele>
        <time>2021-05-28T21:24:00Z</time>
      </trkpt>
      <trkpt lat="47.93675" lon="2.00586">
        <ele>111</ele>
        <time>2021-05-28T21:24:02Z</time>
      </trkpt>
      <trkpt lat="47.93692" lon="2.00581">
        <ele>112</ele>
        <time>2021-05-28T21:24:05Z</time>
      </trkpt>
      <trkpt lat="47.93702" lon="2.00587">
        <ele>112</ele>
        <time>2021-05-28T21:24:07Z</time>
      </trkpt>
      <trkpt lat="47.93725" lon="2.00612">
        <ele>111</ele>
        <time>2021-05-28T21:24:12Z</time>
      </trkpt>
      <trkpt lat="47.93755" lon="2.00651">
        <ele>109</ele>
        <time>2021-05-28T21:24:19Z</time>
      </trkpt>
      <trkpt lat="47.94232" lon="2.01041">
        <ele>107</ele>
        <time>2021-05-28T21:25:56Z</time>
      </trkpt>
      <trkpt lat="47.94268" lon="2.01085">
        <ele>108</ele>
        <time>2021-05-28T21:26:04Z</time>
      </trkpt>
      <trkpt lat="47.94276" lon="2.01067">
        <ele>107</ele>
        <time>2021-05-28T21:26:07Z</time>
      </trkpt>
      <trkpt lat="47.94289" lon="2.01059">
        <ele>106</ele>
        <time>2021-05-28T21:26:09Z</time>
      </trkpt>
      <trkpt lat="47.94302" lon="2.01061">
        <ele>106</ele>
        <time>2021-05-28T21:26:11Z</time>
      </trkpt>
      <trkpt lat="47.9431" lon="2.01068">
        <ele>106</ele>
        <time>2021-05-28T21:26:13Z</time>
      </trkpt>
      <trkpt lat="47.94302" lon="2.01073">
        <ele>106</ele>
        <time>2021-05-28T21:26:15Z</time>
      </trkpt>
      <trkpt lat="47.94292" lon="2.01069">
        <ele>107</ele>
        <time>2021-05-28T21:26:17Z</time>
      </trkpt>
      <trkpt lat="47.94285" lon="2.01072">
        <ele>107</ele>
        <time>2021-05-28T21:26:18Z</time>
      </trkpt>
      <trkpt lat="47.94279" lon="2.01078">
        <ele>107</ele>
        <time>2021-05-28T21:26:19Z</time>
      </trkpt>
      <trkpt lat="47.94274" lon="2.01091">
        <ele>108</ele>
        <time>2021-05-28T21:26:21Z</time>
      </trkpt>
      <trkpt lat="47.94273" lon="2.01096">
        <ele>109</ele>
        <time>2021-05-28T21:26:22Z</time>
      </trkpt>
      <trkpt lat="47.94277" lon="2.01114">
        <ele>110</ele>
        <time>2021-05-28T21:26:24Z</time>
      </trkpt>
      <trkpt lat="47.94283" lon="2.01123">
        <ele>110</ele>
        <time>2021-05-28T21:26:25Z</time>
      </trkpt>
      <trkpt lat="47.94291" lon="2.01127">
        <ele>110</ele>
        <time>2021-05-28T21:26:27Z</time>
      </trkpt>
      <trkpt lat="47.943" lon="2.01125">
        <ele>109</ele>
        <time>2021-05-28T21:26:28Z</time>
      </trkpt>
      <trkpt lat="47.94309" lon="2.01114">
        <ele>108</ele>
        <time>2021-05-28T21:26:30Z</time>
      </trkpt>
      <trkpt lat="47.94312" lon="2.01093">
        <ele>107</ele>
        <time>2021-05-28T21:26:33Z</time>
      </trkpt>
      <trkpt lat="47.9432" lon="2.01073">
        <ele>105</ele>
        <time>2021-05-28T21:26:36Z</time>
      </trkpt>
      <trkpt lat="47.94333" lon="2.01053">
        <ele>105</ele>
        <time>2021-05-28T21:26:39Z</time>
      </trkpt>
      <trkpt lat="47.94414" lon="2.00962">
        <ele>106</ele>
        <time>2021-05-28T21:26:57Z</time>
      </trkpt>
      <trkpt lat="47.94436" lon="2.00948">
        <ele>107</ele>
        <time>2021-05-28T21:27:01Z</time>
      </trkpt>
      <trkpt lat="47.94466" lon="2.00943">
        <ele>108</ele>
        <time>2021-05-28T21:27:07Z</time>
      </trkpt>
      <trkpt lat="47.94582" lon="2.00952">
        <ele>110</ele>
        <time>2021-05-28T21:27:27Z</time>
      </trkpt>
      <trkpt lat="47.94702" lon="2.00958">
        <ele>110</ele>
        <time>2021-05-28T21:27:49Z</time>
      </trkpt>
      <trkpt lat="47.94702" lon="2.00968">
        <ele>110</ele>
        <time>2021-05-28T21:27:50Z</time>
      </trkpt>
      <trkpt lat="47.94789" lon="2.00972">
        <ele>112</ele>
        <time>2021-05-28T21:28:06Z</time>
      </trkpt>
      <trkpt lat="47.94847" lon="2.00961">
        <ele>113</ele>
        <time>2021-05-28T21:28:16Z</time>
      </trkpt>
      <trkpt lat="47.94868" lon="2.00965">
        <ele>113</ele>
        <time>2021-05-28T21:28:20Z</time>
      </trkpt>
      <trkpt lat="47.9486" lon="2.00962">
        <ele>113</ele>
        <time>2021-05-28T21:28:21Z</time>
      </trkpt>
      <trkpt lat="47.94861" lon="2.00952">
        <ele>113</ele>
        <time>2021-05-28T21:28:22Z</time>
      </trkpt>
      <trkpt lat="47.94874" lon="2.00955">
        <ele>113</ele>
        <time>2021-05-28T21:28:25Z</time>
      </trkpt>
      <trkpt lat="47.9488" lon="2.00964">
        <ele>114</ele>
        <time>2021-05-28T21:28:26Z</time>
      </trkpt>
      <trkpt lat="47.94891" lon="2.00968">
        <ele>114</ele>
        <time>2021-05-28T21:28:28Z</time>
      </trkpt>
      <trkpt lat="47.94901" lon="2.00963">
        <ele>114</ele>
        <time>2021-05-28T21:28:30Z</time>
      </trkpt>
      <trkpt lat="47.94908" lon="2.00951">
        <ele>114</ele>
        <time>2021-05-28T21:28:32Z</time>
      </trkpt>
      <trkpt lat="47.94909" lon="2.00934">
        <ele>114</ele>
        <time>2021-05-28T21:28:34Z</time>
      </trkpt>
      <trkpt lat="47.94914" lon="2.0092">
        <ele>114</ele>
        <time>2021-05-28T21:28:36Z</time>
      </trkpt>
      <trkpt lat="47.94932" lon="2.00897">
        <ele>114</ele>
        <time>2021-05-28T21:28:40Z</time>
      </trkpt>
      <trkpt lat="47.94967" lon="2.0087">
        <ele>115</ele>
        <time>2021-05-28T21:28:47Z</time>
      </trkpt>
      <trkpt lat="47.94986" lon="2.00864">
        <ele>115</ele>
        <time>2021-05-28T21:28:51Z</time>
      </trkpt>
      <trkpt lat="47.95" lon="2.00866">
        <ele>116</ele>
        <time>2021-05-28T21:28:53Z</time>
      </trkpt>
      <trkpt lat="47.95015" lon="2.00863">
        <ele>116</ele>
        <time>2021-05-28T21:28:56Z</time>
      </trkpt>
      <trkpt lat="47.95036" lon="2.00835">
        <ele>116</ele>
        <time>2021-05-28T21:29:01Z</time>
      </trkpt>
      <trkpt lat="47.9505" lon="2.00824">
        <ele>116</ele>
        <time>2021-05-28T21:29:04Z</time>
      </trkpt>
      <trkpt lat="47.95073" lon="2.00811">
        <ele>116</ele>
        <time>2021-05-28T21:29:08Z</time>
      </trkpt>
      <trkpt lat="47.95358" lon="2.00738">
        <ele>125</ele>
        <time>2021-05-28T21:29:59Z</time>
      </trkpt>
      <trkpt lat="47.95386" lon="2.00733">
        <ele>126</ele>
        <time>2021-05-28T21:30:04Z</time>
      </trkpt>
      <trkpt lat="47.95406" lon="2.00739">
        <ele>126</ele>
        <time>2021-05-28T21:30:08Z</time>
      </trkpt>
      <trkpt lat="47.95446" lon="2.00765">
        <ele>125</ele>
        <time>2021-05-28T21:30:16Z</time>
      </trkpt>
      <trkpt lat="47.95507" lon="2.00824">
        <ele>124</ele>
        <time>2021-05-28T21:30:29Z</time>
      </trkpt>
      <trkpt lat="47.95559" lon="2.00892">
        <ele>121</ele>
        <time>2021-05-28T21:30:41Z</time>
      </trkpt>
      <trkpt lat="47.95636" lon="2.00999">
        <ele>121</ele>
        <time>2021-05-28T21:31:00Z</time>
      </trkpt>
      <trkpt lat="47.95667" lon="2.01047">
        <ele>121</ele>
        <time>2021-05-28T21:31:08Z</time>
      </trkpt>
      <trkpt lat="47.95703" lon="2.01115">
        <ele>122</ele>
        <time>2021-05-28T21:31:18Z</time>
      </trkpt>
      <trkpt lat="47.95717" lon="2.01137">
        <ele>122</ele>
        <time>2021-05-28T21:31:22Z</time>
      </trkpt>
      <trkpt lat="47.95786" lon="2.01218">
        <ele>123</ele>
        <time>2021-05-28T21:31:37Z</time>
      </trkpt>
      <trkpt lat="47.95784" lon="2.01222">
        <ele>123</ele>
        <time>2021-05-28T21:31:38Z</time>
      </trkpt>
      <trkpt lat="47.95781" lon="2.01217">
        <ele>123</ele>
        <time>2021-05-28T21:31:39Z</time>
      </trkpt>
      <trkpt lat="47.95784" lon="2.01222">
        <ele>123</ele>
        <time>2021-05-28T21:31:39Z</time>
      </trkpt>
      <trkpt lat="47.95786" lon="2.01218">
        <ele>123</ele>
        <time>2021-05-28T21:31:40Z</time>
      </trkpt>
      <trkpt lat="47.95793" lon="2.01227">
        <ele>123</ele>
        <time>2021-05-28T21:31:42Z</time>
      </trkpt>
      <trkpt lat="47.96032" lon="2.00286">
        <ele>122</ele>
        <time>2021-05-28T21:33:42Z</time>
      </trkpt>
      <trkpt lat="47.96058" lon="2.00106">
        <ele>125</ele>
        <time>2021-05-28T21:34:04Z</time>
      </trkpt>
      <trkpt lat="47.96169" lon="1.99595">
        <ele>132</ele>
        <time>2021-05-28T21:35:08Z</time>
      </trkpt>
      <trkpt lat="47.96243" lon="1.99053">
        <ele>121</ele>
        <time>2021-05-28T21:36:14Z</time>
      </trkpt>
      <trkpt lat="47.96276" lon="1.98926">
        <ele>124</ele>
        <time>2021-05-28T21:36:30Z</time>
      </trkpt>
      <trkpt lat="47.96275" lon="1.98844">
        <ele>126</ele>
        <time>2021-05-28T21:36:40Z</time>
      </trkpt>
      <trkpt lat="47.96266" lon="1.98675">
        <ele>128</ele>
        <time>2021-05-28T21:37:00Z</time>
      </trkpt>
      <trkpt lat="47.96243" lon="1.98504">
        <ele>129</ele>
        <time>2021-05-28T21:37:20Z</time>
      </trkpt>
      <trkpt lat="47.9624" lon="1.98466">
        <ele>130</ele>
        <time>2021-05-28T21:37:25Z</time>
      </trkpt>
      <trkpt lat="47.96248" lon="1.98389">
        <ele>130</ele>
        <time>2021-05-28T21:37:34Z</time>
      </trkpt>
      <trkpt lat="47.96277" lon="1.982">
        <ele>132</ele>
        <time>2021-05-28T21:37:57Z</time>
      </trkpt>
      <trkpt lat="47.96284" lon="1.98171">
        <ele>134</ele>
        <time>2021-05-28T21:38:01Z</time>
      </trkpt>
      <trkpt lat="47.96297" lon="1.9814">
        <ele>135</ele>
        <time>2021-05-28T21:38:05Z</time>
      </trkpt>
      <trkpt lat="47.96423" lon="1.97879">
        <ele>135</ele>
        <time>2021-05-28T21:38:44Z</time>
      </trkpt>
      <trkpt lat="47.9644" lon="1.97838">
        <ele>133</ele>
        <time>2021-05-28T21:38:50Z</time>
      </trkpt>
      <trkpt lat="47.96477" lon="1.97794">
        <ele>132</ele>
        <time>2021-05-28T21:38:58Z</time>
      </trkpt>
      <trkpt lat="47.96546" lon="1.97737">
        <ele>131</ele>
        <time>2021-05-28T21:39:12Z</time>
      </trkpt>
      <trkpt lat="47.96585" lon="1.97699">
        <ele>130</ele>
        <time>2021-05-28T21:39:20Z</time>
      </trkpt>
      <trkpt lat="47.96618" lon="1.97662">
        <ele>130</ele>
        <time>2021-05-28T21:39:28Z</time>
      </trkpt>
      <trkpt lat="47.96667" lon="1.97575">
        <ele>129</ele>
        <time>2021-05-28T21:39:41Z</time>
      </trkpt>
      <trkpt lat="47.96679" lon="1.97539">
        <ele>128</ele>
        <time>2021-05-28T21:39:46Z</time>
      </trkpt>
      <trkpt lat="47.9668" lon="1.97514">
        <ele>128</ele>
        <time>2021-05-28T21:39:49Z</time>
      </trkpt>
      <trkpt lat="47.96618" lon="1.97342">
        <ele>128</ele>
        <time>2021-05-28T21:40:12Z</time>
      </trkpt>
      <trkpt lat="47.96603" lon="1.97262">
        <ele>129</ele>
        <time>2021-05-28T21:40:22Z</time>
      </trkpt>
      <trkpt lat="47.96599" lon="1.97109">
        <ele>129</ele>
        <time>2021-05-28T21:40:40Z</time>
      </trkpt>
      <trkpt lat="47.96601" lon="1.97078">
        <ele>129</ele>
        <time>2021-05-28T21:40:44Z</time>
      </trkpt>
      <trkpt lat="47.96605" lon="1.97064">
        <ele>130</ele>
        <time>2021-05-28T21:40:46Z</time>
      </trkpt>
      <trkpt lat="47.9661" lon="1.97057">
        <ele>130</ele>
        <time>2021-05-28T21:40:47Z</time>
      </trkpt>
      <trkpt lat="47.96602" lon="1.97054">
        <ele>130</ele>
        <time>2021-05-28T21:40:49Z</time>
      </trkpt>
      <trkpt lat="47.9659" lon="1.97042">
        <ele>131</ele>
        <time>2021-05-28T21:40:51Z</time>
      </trkpt>
      <trkpt lat="47.96582" lon="1.97038">
        <ele>131</ele>
        <time>2021-05-28T21:40:53Z</time>
      </trkpt>
      <trkpt lat="47.96533" lon="1.97035">
        <ele>131</ele>
        <time>2021-05-28T21:41:01Z</time>
      </trkpt>
      <trkpt lat="47.96516" lon="1.97032">
        <ele>131</ele>
        <time>2021-05-28T21:41:04Z</time>
      </trkpt>
      <trkpt lat="47.96498" lon="1.97025">
        <ele>131</ele>
        <time>2021-05-28T21:41:08Z</time>
      </trkpt>
      <trkpt lat="47.96486" lon="1.97016">
        <ele>131</ele>
        <time>2021-05-28T21:41:10Z</time>
      </trkpt>
      <trkpt lat="47.96467" lon="1.96994">
        <ele>131</ele>
        <time>2021-05-28T21:41:14Z</time>
      </trkpt>
      <trkpt lat="47.96405" lon="1.96946">
        <ele>130</ele>
        <time>2021-05-28T21:41:27Z</time>
      </trkpt>
      <trkpt lat="47.96402" lon="1.96935">
        <ele>129</ele>
        <time>2021-05-28T21:41:28Z</time>
      </trkpt>
      <trkpt lat="47.96405" lon="1.96847">
        <ele>130</ele>
        <time>2021-05-28T21:41:39Z</time>
      </trkpt>
      <trkpt lat="47.96402" lon="1.96935">
        <ele>129</ele>
        <time>2021-05-28T21:41:49Z</time>
      </trkpt>
      <trkpt lat="47.96405" lon="1.96946">
        <ele>130</ele>
        <time>2021-05-28T21:41:51Z</time>
      </trkpt>
      <trkpt lat="47.96467" lon="1.96994">
        <ele>131</ele>
        <time>2021-05-28T21:42:03Z</time>
      </trkpt>
      <trkpt lat="47.96486" lon="1.97016">
        <ele>131</ele>
        <time>2021-05-28T21:42:07Z</time>
      </trkpt>
      <trkpt lat="47.96498" lon="1.97025">
        <ele>131</ele>
        <time>2021-05-28T21:42:10Z</time>
      </trkpt>
      <trkpt lat="47.96516" lon="1.97032">
        <ele>131</ele>
        <time>2021-05-28T21:42:13Z</time>
      </trkpt>
      <trkpt lat="47.96533" lon="1.97035">
        <ele>131</ele>
        <time>2021-05-28T21:42:16Z</time>
      </trkpt>
      <trkpt lat="47.96574" lon="1.97038">
        <ele>131</ele>
        <time>2021-05-28T21:42:23Z</time>
      </trkpt>
      <trkpt lat="47.96591" lon="1.97051">
        <ele>131</ele>
        <time>2021-05-28T21:42:27Z</time>
      </trkpt>
      <trkpt lat="47.96603" lon="1.9707">
        <ele>130</ele>
        <time>2021-05-28T21:42:30Z</time>
      </trkpt>
      <trkpt lat="47.9661" lon="1.97057">
        <ele>130</ele>
        <time>2021-05-28T21:42:32Z</time>
      </trkpt>
      <trkpt lat="47.96776" lon="1.9698">
        <ele>133</ele>
        <time>2021-05-28T21:43:03Z</time>
      </trkpt>
      <trkpt lat="47.96787" lon="1.96971">
        <ele>132</ele>
        <time>2021-05-28T21:43:05Z</time>
      </trkpt>
      <trkpt lat="47.96809" lon="1.96929">
        <ele>132</ele>
        <time>2021-05-28T21:43:11Z</time>
      </trkpt>
      <trkpt lat="47.96988" lon="1.96536">
        <ele>131</ele>
        <time>2021-05-28T21:44:08Z</time>
      </trkpt>
      <trkpt lat="47.97059" lon="1.96375">
        <ele>132</ele>
        <time>2021-05-28T21:44:31Z</time>
      </trkpt>
      <trkpt lat="47.97109" lon="1.9627">
        <ele>133</ele>
        <time>2021-05-28T21:44:46Z</time>
      </trkpt>
      <trkpt lat="47.97116" lon="1.96251">
        <ele>133</ele>
        <time>2021-05-28T21:44:49Z</time>
      </trkpt>
      <trkpt lat="47.97119" lon="1.96231">
        <ele>134</ele>
        <time>2021-05-28T21:44:51Z</time>
      </trkpt>
      <trkpt lat="47.97128" lon="1.96218">
        <ele>134</ele>
        <time>2021-05-28T21:44:54Z</time>
      </trkpt>
      <trkpt lat="47.97136" lon="1.96219">
        <ele>134</ele>
        <time>2021-05-28T21:44:55Z</time>
      </trkpt>
      <trkpt lat="47.97145" lon="1.96229">
        <ele>134</ele>
        <time>2021-05-28T21:44:57Z</time>
      </trkpt>
      <trkpt lat="47.97197" lon="1.96319">
        <ele>133</ele>
        <time>2021-05-28T21:45:11Z</time>
      </trkpt>
      <trkpt lat="47.97346" lon="1.96654">
        <ele>133</ele>
        <time>2021-05-28T21:45:59Z</time>
      </trkpt>
      <trkpt lat="47.97432" lon="1.96854">
        <ele>133</ele>
        <time>2021-05-28T21:46:27Z</time>
      </trkpt>
      <trkpt lat="47.97466" lon="1.96944">
        <ele>134</ele>
        <time>2021-05-28T21:46:40Z</time>
      </trkpt>
      <trkpt lat="47.9748" lon="1.96989">
        <ele>134</ele>
        <time>2021-05-28T21:46:46Z</time>
      </trkpt>
      <trkpt lat="47.97574" lon="1.97379">
        <ele>137</ele>
        <time>2021-05-28T21:47:35Z</time>
      </trkpt>
      <trkpt lat="47.97623" lon="1.97622">
        <ele>138</ele>
        <time>2021-05-28T21:48:05Z</time>
      </trkpt>
      <trkpt lat="47.97709" lon="1.9811">
        <ele>143</ele>
        <time>2021-05-28T21:49:05Z</time>
      </trkpt>
      <trkpt lat="47.97719" lon="1.98142">
        <ele>143</ele>
        <time>2021-05-28T21:49:10Z</time>
      </trkpt>
      <trkpt lat="47.97819" lon="1.98325">
        <ele>142</ele>
        <time>2021-05-28T21:49:38Z</time>
      </trkpt>
      <trkpt lat="47.98138" lon="1.98888">
        <ele>132</ele>
        <time>2021-05-28T21:51:06Z</time>
      </trkpt>
      <trkpt lat="47.98347" lon="1.99264">
        <ele>131</ele>
        <time>2021-05-28T21:52:04Z</time>
      </trkpt>
      <trkpt lat="47.98775" lon="2.00013">
        <ele>135</ele>
        <time>2021-05-28T21:54:01Z</time>
      </trkpt>
      <trkpt lat="47.98868" lon="2.00194">
        <ele>136</ele>
        <time>2021-05-28T21:54:28Z</time>
      </trkpt>
      <trkpt lat="47.99158" lon="2.02345">
        <ele>142</ele>
        <time>2021-05-28T21:58:49Z</time>
      </trkpt>
      <trkpt lat="47.99157" lon="2.02388">
        <ele>140</ele>
        <time>2021-05-28T21:58:55Z</time>
      </trkpt>
      <trkpt lat="47.99149" lon="2.02412">
        <ele>139</ele>
        <time>2021-05-28T21:58:58Z</time>
      </trkpt>
      <trkpt lat="47.99099" lon="2.02486">
        <ele>139</ele>
        <time>2021-05-28T21:59:10Z</time>
      </trkpt>
      <trkpt lat="47.99019" lon="2.02557">
        <ele>139</ele>
        <time>2021-05-28T21:59:27Z</time>
      </trkpt>
      <trkpt lat="47.99002" lon="2.0258">
        <ele>138</ele>
        <time>2021-05-28T21:59:31Z</time>
      </trkpt>
      <trkpt lat="47.98967" lon="2.02646">
        <ele>136</ele>
        <time>2021-05-28T21:59:41Z</time>
      </trkpt>
      <trkpt lat="47.98941" lon="2.02728">
        <ele>134</ele>
        <time>2021-05-28T21:59:52Z</time>
      </trkpt>
      <trkpt lat="47.98917" lon="2.02771">
        <ele>134</ele>
        <time>2021-05-28T21:59:58Z</time>
      </trkpt>
      <trkpt lat="47.98869" lon="2.0284">
        <ele>134</ele>
        <time>2021-05-28T22:00:10Z</time>
      </trkpt>
      <trkpt lat="47.98813" lon="2.02885">
        <ele>134</ele>
        <time>2021-05-28T22:00:22Z</time>
      </trkpt>
      <trkpt lat="47.98781" lon="2.02945">
        <ele>134</ele>
        <time>2021-05-28T22:00:31Z</time>
      </trkpt>
      <trkpt lat="47.98738" lon="2.03006">
        <ele>135</ele>
        <time>2021-05-28T22:00:41Z</time>
      </trkpt>
      <trkpt lat="47.98615" lon="2.03255">
        <ele>130</ele>
        <time>2021-05-28T22:01:18Z</time>
      </trkpt>
      <trkpt lat="47.98569" lon="2.0341">
        <ele>128</ele>
        <time>2021-05-28T22:01:38Z</time>
      </trkpt>
      <trkpt lat="47.98536" lon="2.03426">
        <ele>129</ele>
        <time>2021-05-28T22:01:45Z</time>
      </trkpt>
      <trkpt lat="47.98524" lon="2.03455">
        <ele>129</ele>
        <time>2021-05-28T22:01:49Z</time>
      </trkpt>
      <trkpt lat="47.98487" lon="2.03604">
        <ele>127</ele>
        <time>2021-05-28T22:02:07Z</time>
      </trkpt>
      <trkpt lat="47.98484" lon="2.03633">
        <ele>126</ele>
        <time>2021-05-28T22:02:11Z</time>
      </trkpt>
      <trkpt lat="47.98487" lon="2.03735">
        <ele>126</ele>
        <time>2021-05-28T22:02:23Z</time>
      </trkpt>
      <trkpt lat="47.9847" lon="2.03843">
        <ele>125</ele>
        <time>2021-05-28T22:02:36Z</time>
      </trkpt>
      <trkpt lat="47.98477" lon="2.03903">
        <ele>124</ele>
        <time>2021-05-28T22:02:44Z</time>
      </trkpt>
      <trkpt lat="47.98484" lon="2.03933">
        <ele>123</ele>
        <time>2021-05-28T22:02:47Z</time>
      </trkpt>
      <trkpt lat="47.98494" lon="2.03959">
        <ele>123</ele>
        <time>2021-05-28T22:02:51Z</time>
      </trkpt>
      <trkpt lat="47.9852" lon="2.03999">
        <ele>123</ele>
        <time>2021-05-28T22:02:58Z</time>
      </trkpt>
      <trkpt lat="47.98539" lon="2.04017">
        <ele>123</ele>
        <time>2021-05-28T22:03:02Z</time>
      </trkpt>
      <trkpt lat="47.9858" lon="2.04063">
        <ele>124</ele>
        <time>2021-05-28T22:03:11Z</time>
      </trkpt>
      <trkpt lat="47.98605" lon="2.04106">
        <ele>122</ele>
        <time>2021-05-28T22:03:18Z</time>
      </trkpt>
      <trkpt lat="47.98635" lon="2.04176">
        <ele>121</ele>
        <time>2021-05-28T22:03:27Z</time>
      </trkpt>
      <trkpt lat="47.98694" lon="2.04385">
        <ele>118</ele>
        <time>2021-05-28T22:03:54Z</time>
      </trkpt>
      <trkpt lat="47.98695" lon="2.04422">
        <ele>118</ele>
        <time>2021-05-28T22:03:59Z</time>
      </trkpt>
      <trkpt lat="47.98724" lon="2.04437">
        <ele>119</ele>
        <time>2021-05-28T22:04:04Z</time>
      </trkpt>
      <trkpt lat="47.98722" lon="2.04463">
        <ele>119</ele>
        <time>2021-05-28T22:04:07Z</time>
      </trkpt>
      <trkpt lat="47.98755" lon="2.04625">
        <ele>120</ele>
        <time>2021-05-28T22:04:28Z</time>
      </trkpt>
      <trkpt lat="47.98793" lon="2.05145">
        <ele>117</ele>
        <time>2021-05-28T22:05:30Z</time>
      </trkpt>
      <trkpt lat="47.98784" lon="2.05193">
        <ele>117</ele>
        <time>2021-05-28T22:05:36Z</time>
      </trkpt>
      <trkpt lat="47.9879" lon="2.05207">
        <ele>117</ele>
        <time>2021-05-28T22:05:38Z</time>
      </trkpt>
      <trkpt lat="47.98796" lon="2.05214">
        <ele>117</ele>
        <time>2021-05-28T22:05:39Z</time>
      </trkpt>
      <trkpt lat="47.9892" lon="2.05287">
        <ele>118</ele>
        <time>2021-05-28T22:06:03Z</time>
      </trkpt>
      <trkpt lat="47.98991" lon="2.05315">
        <ele>120</ele>
        <time>2021-05-28T22:06:16Z</time>
      </trkpt>
      <trkpt lat="47.99121" lon="2.0536">
        <ele>122</ele>
        <time>2021-05-28T22:06:40Z</time>
      </trkpt>
      <trkpt lat="47.99241" lon="2.05417">
        <ele>122</ele>
        <time>2021-05-28T22:07:02Z</time>
      </trkpt>
      <trkpt lat="47.99352" lon="2.05465">
        <ele>125</ele>
        <time>2021-05-28T22:07:23Z</time>
      </trkpt>
      <trkpt lat="47.99454" lon="2.05498">
        <ele>125</ele>
        <time>2021-05-28T22:07:41Z</time>
      </trkpt>
      <trkpt lat="47.99464" lon="2.05508">
        <ele>125</ele>
        <time>2021-05-28T22:07:43Z</time>
      </trkpt>
      <trkpt lat="47.99478" lon="2.05531">
        <ele>124</ele>
        <time>2021-05-28T22:07:47Z</time>
      </trkpt>
      <trkpt lat="47.9961" lon="2.05796">
        <ele>118</ele>
        <time>2021-05-28T22:08:26Z</time>
      </trkpt>
      <trkpt lat="47.99645" lon="2.0589">
        <ele>117</ele>
        <time>2021-05-28T22:08:39Z</time>
      </trkpt>
      <trkpt lat="47.99705" lon="2.05985">
        <ele>116</ele>
        <time>2021-05-28T22:08:55Z</time>
      </trkpt>
      <trkpt lat="47.99981" lon="2.06401">
        <ele>123</ele>
        <time>2021-05-28T22:10:04Z</time>
      </trkpt>
      <trkpt lat="48.00019" lon="2.06474">
        <ele>123</ele>
        <time>2021-05-28T22:10:16Z</time>
      </trkpt>
      <trkpt lat="48.00029" lon="2.06499">
        <ele>123</ele>
        <time>2021-05-28T22:10:19Z</time>
      </trkpt>
      <trkpt lat="48.00036" lon="2.06531">
        <ele>123</ele>
        <time>2021-05-28T22:10:23Z</time>
      </trkpt>
      <trkpt lat="48.00042" lon="2.06578">
        <ele>123</ele>
        <time>2021-05-28T22:10:29Z</time>
      </trkpt>
      <trkpt lat="48.00063" lon="2.06822">
        <ele>126</ele>
        <time>2021-05-28T22:10:58Z</time>
      </trkpt>
      <trkpt lat="48.00068" lon="2.06856">
        <ele>126</ele>
        <time>2021-05-28T22:11:02Z</time>
      </trkpt>
      <trkpt lat="48.00086" lon="2.06906">
        <ele>127</ele>
        <time>2021-05-28T22:11:09Z</time>
      </trkpt>
      <trkpt lat="48.00151" lon="2.07046">
        <ele>128</ele>
        <time>2021-05-28T22:11:29Z</time>
      </trkpt>
      <trkpt lat="48.00166" lon="2.07083">
        <ele>129</ele>
        <time>2021-05-28T22:11:34Z</time>
      </trkpt>
      <trkpt lat="48.00216" lon="2.07269">
        <ele>130</ele>
        <time>2021-05-28T22:11:58Z</time>
      </trkpt>
      <trkpt lat="48.00218" lon="2.07295">
        <ele>130</ele>
        <time>2021-05-28T22:12:01Z</time>
      </trkpt>
      <trkpt lat="48.00216" lon="2.07317">
        <ele>130</ele>
        <time>2021-05-28T22:12:04Z</time>
      </trkpt>
      <trkpt lat="48.00209" lon="2.07346">
        <ele>130</ele>
        <time>2021-05-28T22:12:08Z</time>
      </trkpt>
      <trkpt lat="48.00199" lon="2.07372">
        <ele>130</ele>
        <time>2021-05-28T22:12:11Z</time>
      </trkpt>
      <trkpt lat="48.00193" lon="2.07401">
        <ele>130</ele>
        <time>2021-05-28T22:12:15Z</time>
      </trkpt>
      <trkpt lat="48.00192" lon="2.07433">
        <ele>130</ele>
        <time>2021-05-28T22:12:19Z</time>
      </trkpt>
      <trkpt lat="48.00192" lon="2.07461">
        <ele>129</ele>
        <time>2021-05-28T22:12:22Z</time>
      </trkpt>
      <trkpt lat="48.00212" lon="2.0764">
        <ele>130</ele>
        <time>2021-05-28T22:12:44Z</time>
      </trkpt>
      <trkpt lat="48.00211" lon="2.07678">
        <ele>130</ele>
        <time>2021-05-28T22:12:48Z</time>
      </trkpt>
      <trkpt lat="48.00198" lon="2.07754">
        <ele>129</ele>
        <time>2021-05-28T22:12:57Z</time>
      </trkpt>
      <trkpt lat="48.00198" lon="2.07772">
        <ele>129</ele>
        <time>2021-05-28T22:13:00Z</time>
      </trkpt>
      <trkpt lat="48.00202" lon="2.07804">
        <ele>127</ele>
        <time>2021-05-28T22:13:03Z</time>
      </trkpt>
      <trkpt lat="48.00213" lon="2.07856">
        <ele>126</ele>
        <time>2021-05-28T22:13:10Z</time>
      </trkpt>
      <trkpt lat="48.00217" lon="2.07917">
        <ele>125</ele>
        <time>2021-05-28T22:13:17Z</time>
      </trkpt>
      <trkpt lat="48.00214" lon="2.08007">
        <ele>124</ele>
        <time>2021-05-28T22:13:28Z</time>
      </trkpt>
      <trkpt lat="48.00204" lon="2.08136">
        <ele>123</ele>
        <time>2021-05-28T22:13:43Z</time>
      </trkpt>
      <trkpt lat="48.00191" lon="2.08222">
        <ele>123</ele>
        <time>2021-05-28T22:13:54Z</time>
      </trkpt>
      <trkpt lat="48.00154" lon="2.08411">
        <ele>127</ele>
        <time>2021-05-28T22:14:17Z</time>
      </trkpt>
      <trkpt lat="48.00146" lon="2.08494">
        <ele>126</ele>
        <time>2021-05-28T22:14:27Z</time>
      </trkpt>
      <trkpt lat="48.00155" lon="2.08492">
        <ele>127</ele>
        <time>2021-05-28T22:14:29Z</time>
      </trkpt>
      <trkpt lat="48.00205" lon="2.08496">
        <ele>128</ele>
        <time>2021-05-28T22:14:38Z</time>
      </trkpt>
      <trkpt lat="48.00255" lon="2.08485">
        <ele>129</ele>
        <time>2021-05-28T22:14:47Z</time>
      </trkpt>
      <trkpt lat="48.00282" lon="2.08483">
        <ele>129</ele>
        <time>2021-05-28T22:14:52Z</time>
      </trkpt>
      <trkpt lat="48.00479" lon="2.08514">
        <ele>130</ele>
        <time>2021-05-28T22:15:27Z</time>
      </trkpt>
      <trkpt lat="48.00505" lon="2.0853">
        <ele>130</ele>
        <time>2021-05-28T22:15:32Z</time>
      </trkpt>
      <trkpt lat="48.00533" lon="2.08555">
        <ele>129</ele>
        <time>2021-05-28T22:15:38Z</time>
      </trkpt>
      <trkpt lat="48.00696" lon="2.08709">
        <ele>128</ele>
        <time>2021-05-28T22:16:12Z</time>
      </trkpt>
      <trkpt lat="48.00731" lon="2.08733">
        <ele>129</ele>
        <time>2021-05-28T22:16:19Z</time>
      </trkpt>
      <trkpt lat="48.00775" lon="2.08759">
        <ele>129</ele>
        <time>2021-05-28T22:16:27Z</time>
      </trkpt>
      <trkpt lat="48.00806" lon="2.08769">
        <ele>129</ele>
        <time>2021-05-28T22:16:33Z</time>
      </trkpt>
      <trkpt lat="48.00816" lon="2.0877">
        <ele>128</ele>
        <time>2021-05-28T22:16:35Z</time>
      </trkpt>
      <trkpt lat="48.00879" lon="2.08763">
        <ele>129</ele>
        <time>2021-05-28T22:16:46Z</time>
      </trkpt>
      <trkpt lat="48.00898" lon="2.08765">
        <ele>130</ele>
        <time>2021-05-28T22:16:49Z</time>
      </trkpt>
      <trkpt lat="48.00945" lon="2.08781">
        <ele>130</ele>
        <time>2021-05-28T22:16:58Z</time>
      </trkpt>
      <trkpt lat="48.00948" lon="2.08918">
        <ele>130</ele>
        <time>2021-05-28T22:17:14Z</time>
      </trkpt>
      <trkpt lat="48.00946" lon="2.08938">
        <ele>130</ele>
        <time>2021-05-28T22:17:17Z</time>
      </trkpt>
      <trkpt lat="48.00934" lon="2.08975">
        <ele>129</ele>
        <time>2021-05-28T22:17:22Z</time>
      </trkpt>
      <trkpt lat="48.00862" lon="2.09106">
        <ele>132</ele>
        <time>2021-05-28T22:17:42Z</time>
      </trkpt>
      <trkpt lat="48.00794" lon="2.09245">
        <ele>133</ele>
        <time>2021-05-28T22:18:02Z</time>
      </trkpt>
      <trkpt lat="48.00782" lon="2.09352">
        <ele>131</ele>
        <time>2021-05-28T22:18:15Z</time>
      </trkpt>
      <trkpt lat="48.0078" lon="2.09405">
        <ele>130</ele>
        <time>2021-05-28T22:18:21Z</time>
      </trkpt>
      <trkpt lat="48.00785" lon="2.09445">
        <ele>129</ele>
        <time>2021-05-28T22:18:26Z</time>
      </trkpt>
      <trkpt lat="48.00799" lon="2.09507">
        <ele>129</ele>
        <time>2021-05-28T22:18:34Z</time>
      </trkpt>
      <trkpt lat="48.00685" lon="2.09641">
        <ele>124</ele>
        <time>2021-05-28T22:19:00Z</time>
      </trkpt>
      <trkpt lat="48.00493" lon="2.09962">
        <ele>120</ele>
        <time>2021-05-28T22:19:51Z</time>
      </trkpt>
      <trkpt lat="48.00533" lon="2.10023">
        <ele>121</ele>
        <time>2021-05-28T22:20:01Z</time>
      </trkpt>
      <trkpt lat="48.00621" lon="2.10133">
        <ele>119</ele>
        <time>2021-05-28T22:20:22Z</time>
      </trkpt>
      <trkpt lat="48.00558" lon="2.1032">
        <ele>117</ele>
        <time>2021-05-28T22:20:47Z</time>
      </trkpt>
      <trkpt lat="48.00546" lon="2.10381">
        <ele>118</ele>
        <time>2021-05-28T22:20:54Z</time>
      </trkpt>
      <trkpt lat="48.00517" lon="2.10483">
        <ele>118</ele>
        <time>2021-05-28T22:21:07Z</time>
      </trkpt>
      <trkpt lat="48.00448" lon="2.10705">
        <ele>124</ele>
        <time>2021-05-28T22:21:37Z</time>
      </trkpt>
      <trkpt lat="48.00432" lon="2.10767">
        <ele>124</ele>
        <time>2021-05-28T22:21:44Z</time>
      </trkpt>
      <trkpt lat="48.00423" lon="2.10821">
        <ele>126</ele>
        <time>2021-05-28T22:21:51Z</time>
      </trkpt>
      <trkpt lat="48.00415" lon="2.10905">
        <ele>127</ele>
        <time>2021-05-28T22:22:01Z</time>
      </trkpt>
      <trkpt lat="48.00374" lon="2.11092">
        <ele>131</ele>
        <time>2021-05-28T22:22:25Z</time>
      </trkpt>
      <trkpt lat="48.0036" lon="2.11106">
        <ele>132</ele>
        <time>2021-05-28T22:22:28Z</time>
      </trkpt>
      <trkpt lat="48.00342" lon="2.11111">
        <ele>132</ele>
        <time>2021-05-28T22:22:31Z</time>
      </trkpt>
      <trkpt lat="48.00324" lon="2.11112">
        <ele>131</ele>
        <time>2021-05-28T22:22:34Z</time>
      </trkpt>
      <trkpt lat="48.00304" lon="2.11118">
        <ele>131</ele>
        <time>2021-05-28T22:22:38Z</time>
      </trkpt>
      <trkpt lat="48.00284" lon="2.1113">
        <ele>131</ele>
        <time>2021-05-28T22:22:42Z</time>
      </trkpt>
      <trkpt lat="48.00204" lon="2.11248">
        <ele>129</ele>
        <time>2021-05-28T22:23:02Z</time>
      </trkpt>
      <trkpt lat="48.00183" lon="2.1127">
        <ele>127</ele>
        <time>2021-05-28T22:23:06Z</time>
      </trkpt>
      <trkpt lat="48.00165" lon="2.11282">
        <ele>126</ele>
        <time>2021-05-28T22:23:10Z</time>
      </trkpt>
      <trkpt lat="48.00028" lon="2.11326">
        <ele>126</ele>
        <time>2021-05-28T22:23:35Z</time>
      </trkpt>
      <trkpt lat="48.00009" lon="2.11329">
        <ele>126</ele>
        <time>2021-05-28T22:23:38Z</time>
      </trkpt>
      <trkpt lat="47.99983" lon="2.11325">
        <ele>126</ele>
        <time>2021-05-28T22:23:43Z</time>
      </trkpt>
      <trkpt lat="47.99924" lon="2.11305">
        <ele>126</ele>
        <time>2021-05-28T22:23:53Z</time>
      </trkpt>
      <trkpt lat="47.99883" lon="2.11285">
        <ele>126</ele>
        <time>2021-05-28T22:24:01Z</time>
      </trkpt>
      <trkpt lat="47.99865" lon="2.11279">
        <ele>127</ele>
        <time>2021-05-28T22:24:04Z</time>
      </trkpt>
      <trkpt lat="47.99849" lon="2.11279">
        <ele>127</ele>
        <time>2021-05-28T22:24:07Z</time>
      </trkpt>
      <trkpt lat="47.99764" lon="2.11303">
        <ele>129</ele>
        <time>2021-05-28T22:24:23Z</time>
      </trkpt>
      <trkpt lat="47.99719" lon="2.11305">
        <ele>129</ele>
        <time>2021-05-28T22:24:31Z</time>
      </trkpt>
      <trkpt lat="47.99591" lon="2.11334">
        <ele>134</ele>
        <time>2021-05-28T22:24:54Z</time>
      </trkpt>
      <trkpt lat="47.99512" lon="2.11346">
        <ele>136</ele>
        <time>2021-05-28T22:25:08Z</time>
      </trkpt>
      <trkpt lat="47.99437" lon="2.11344">
        <ele>140</ele>
        <time>2021-05-28T22:25:21Z</time>
      </trkpt>
      <trkpt lat="47.99326" lon="2.11363">
        <ele>143</ele>
        <time>2021-05-28T22:25:41Z</time>
      </trkpt>
      <trkpt lat="47.99301" lon="2.11362">
        <ele>143</ele>
        <time>2021-05-28T22:25:45Z</time>
      </trkpt>
      <trkpt lat="47.99248" lon="2.11346">
        <ele>144</ele>
        <time>2021-05-28T22:25:55Z</time>
      </trkpt>
      <trkpt lat="47.99104" lon="2.11277">
        <ele>138</ele>
        <time>2021-05-28T22:26:22Z</time>
      </trkpt>
      <trkpt lat="47.99082" lon="2.11262">
        <ele>137</ele>
        <time>2021-05-28T22:26:26Z</time>
      </trkpt>
      <trkpt lat="47.99033" lon="2.11193">
        <ele>137</ele>
        <time>2021-05-28T22:26:38Z</time>
      </trkpt>
      <trkpt lat="47.99024" lon="2.11186">
        <ele>137</ele>
        <time>2021-05-28T22:26:40Z</time>
      </trkpt>
      <trkpt lat="47.98897" lon="2.11153">
        <ele>138</ele>
        <time>2021-05-28T22:27:03Z</time>
      </trkpt>
      <trkpt lat="47.98858" lon="2.11147">
        <ele>138</ele>
        <time>2021-05-28T22:27:10Z</time>
      </trkpt>
      <trkpt lat="47.98737" lon="2.111">
        <ele>139</ele>
        <time>2021-05-28T22:27:32Z</time>
      </trkpt>
      <trkpt lat="47.98687" lon="2.11073">
        <ele>138</ele>
        <time>2021-05-28T22:27:42Z</time>
      </trkpt>
      <trkpt lat="47.986" lon="2.10987">
        <ele>137</ele>
        <time>2021-05-28T22:28:00Z</time>
      </trkpt>
      <trkpt lat="47.98542" lon="2.10922">
        <ele>137</ele>
        <time>2021-05-28T22:28:13Z</time>
      </trkpt>
      <trkpt lat="47.98477" lon="2.10855">
        <ele>134</ele>
        <time>2021-05-28T22:28:27Z</time>
      </trkpt>
      <trkpt lat="47.98391" lon="2.10787">
        <ele>133</ele>
        <time>2021-05-28T22:28:44Z</time>
      </trkpt>
      <trkpt lat="47.98227" lon="2.10633">
        <ele>132</ele>
        <time>2021-05-28T22:29:19Z</time>
      </trkpt>
      <trkpt lat="47.98132" lon="2.10556">
        <ele>133</ele>
        <time>2021-05-28T22:29:38Z</time>
      </trkpt>
      <trkpt lat="47.98039" lon="2.10468">
        <ele>135</ele>
        <time>2021-05-28T22:29:58Z</time>
      </trkpt>
      <trkpt lat="47.97982" lon="2.10549">
        <ele>136</ele>
        <time>2021-05-28T22:30:12Z</time>
      </trkpt>
      <trkpt lat="47.97921" lon="2.10656">
        <ele>136</ele>
        <time>2021-05-28T22:30:28Z</time>
      </trkpt>
      <trkpt lat="47.97868" lon="2.10743">
        <ele>136</ele>
        <time>2021-05-28T22:30:42Z</time>
      </trkpt>
      <trkpt lat="47.97859" lon="2.10754">
        <ele>136</ele>
        <time>2021-05-28T22:30:45Z</time>
      </trkpt>
      <trkpt lat="47.97868" lon="2.10743">
        <ele>136</ele>
        <time>2021-05-28T22:30:47Z</time>
      </trkpt>
      <trkpt lat="47.97955" lon="2.10859">
        <ele>136</ele>
        <time>2021-05-28T22:31:07Z</time>
      </trkpt>
      <trkpt lat="47.98119" lon="2.1109">
        <ele>132</ele>
        <time>2021-05-28T22:31:47Z</time>
      </trkpt>
      <trkpt lat="47.98208" lon="2.11187">
        <ele>130</ele>
        <time>2021-05-28T22:32:07Z</time>
      </trkpt>
      <trkpt lat="47.98185" lon="2.11346">
        <ele>128</ele>
        <time>2021-05-28T22:32:26Z</time>
      </trkpt>
      <trkpt lat="47.98158" lon="2.11468">
        <ele>127</ele>
        <time>2021-05-28T22:32:42Z</time>
      </trkpt>
      <trkpt lat="47.98148" lon="2.11528">
        <ele>127</ele>
        <time>2021-05-28T22:32:49Z</time>
      </trkpt>
      <trkpt lat="47.98148" lon="2.11597">
        <ele>127</ele>
        <time>2021-05-28T22:32:57Z</time>
      </trkpt>
      <trkpt lat="47.98151" lon="2.11623">
        <ele>126</ele>
        <time>2021-05-28T22:33:00Z</time>
      </trkpt>
      <trkpt lat="47.9807" lon="2.11711">
        <ele>129</ele>
        <time>2021-05-28T22:33:18Z</time>
      </trkpt>
      <trkpt lat="47.98004" lon="2.11776">
        <ele>128</ele>
        <time>2021-05-28T22:33:32Z</time>
      </trkpt>
      <trkpt lat="47.97949" lon="2.11854">
        <ele>125</ele>
        <time>2021-05-28T22:33:46Z</time>
      </trkpt>
      <trkpt lat="47.97864" lon="2.11985">
        <ele>126</ele>
        <time>2021-05-28T22:34:08Z</time>
      </trkpt>
      <trkpt lat="47.97847" lon="2.12015">
        <ele>126</ele>
        <time>2021-05-28T22:34:12Z</time>
      </trkpt>
      <trkpt lat="47.97833" lon="2.12076">
        <ele>125</ele>
        <time>2021-05-28T22:34:20Z</time>
      </trkpt>
      <trkpt lat="47.97812" lon="2.12113">
        <ele>125</ele>
        <time>2021-05-28T22:34:26Z</time>
      </trkpt>
      <trkpt lat="47.97794" lon="2.12159">
        <ele>124</ele>
        <time>2021-05-28T22:34:32Z</time>
      </trkpt>
      <trkpt lat="47.97787" lon="2.12208">
        <ele>125</ele>
        <time>2021-05-28T22:34:38Z</time>
      </trkpt>
      <trkpt lat="47.97787" lon="2.12263">
        <ele>126</ele>
        <time>2021-05-28T22:34:45Z</time>
      </trkpt>
      <trkpt lat="47.97802" lon="2.12434">
        <ele>124</ele>
        <time>2021-05-28T22:35:05Z</time>
      </trkpt>
      <trkpt lat="47.97801" lon="2.125">
        <ele>124</ele>
        <time>2021-05-28T22:35:13Z</time>
      </trkpt>
      <trkpt lat="47.97798" lon="2.12543">
        <ele>123</ele>
        <time>2021-05-28T22:35:18Z</time>
      </trkpt>
      <trkpt lat="47.97787" lon="2.12595">
        <ele>121</ele>
        <time>2021-05-28T22:35:25Z</time>
      </trkpt>
      <trkpt lat="47.97777" lon="2.12634">
        <ele>120</ele>
        <time>2021-05-28T22:35:30Z</time>
      </trkpt>
      <trkpt lat="47.97677" lon="2.12925">
        <ele>115</ele>
        <time>2021-05-28T22:36:09Z</time>
      </trkpt>
      <trkpt lat="47.97642" lon="2.13073">
        <ele>117</ele>
        <time>2021-05-28T22:36:27Z</time>
      </trkpt>
      <trkpt lat="47.97629" lon="2.13108">
        <ele>117</ele>
        <time>2021-05-28T22:36:32Z</time>
      </trkpt>
      <trkpt lat="47.97575" lon="2.13221">
        <ele>114</ele>
        <time>2021-05-28T22:36:49Z</time>
      </trkpt>
      <trkpt lat="47.97531" lon="2.13298">
        <ele>115</ele>
        <time>2021-05-28T22:37:01Z</time>
      </trkpt>
      <trkpt lat="47.97514" lon="2.13343">
        <ele>116</ele>
        <time>2021-05-28T22:37:07Z</time>
      </trkpt>
      <trkpt lat="47.97498" lon="2.13411">
        <ele>119</ele>
        <time>2021-05-28T22:37:15Z</time>
      </trkpt>
      <trkpt lat="47.97505" lon="2.13466">
        <ele>121</ele>
        <time>2021-05-28T22:37:22Z</time>
      </trkpt>
      <trkpt lat="47.97533" lon="2.13567">
        <ele>121</ele>
        <time>2021-05-28T22:37:35Z</time>
      </trkpt>
      <trkpt lat="47.97573" lon="2.13656">
        <ele>123</ele>
        <time>2021-05-28T22:37:48Z</time>
      </trkpt>
      <trkpt lat="47.97586" lon="2.13706">
        <ele>124</ele>
        <time>2021-05-28T22:37:54Z</time>
      </trkpt>
      <trkpt lat="47.97579" lon="2.13873">
        <ele>131</ele>
        <time>2021-05-28T22:38:14Z</time>
      </trkpt>
      <trkpt lat="47.9758" lon="2.1398">
        <ele>131</ele>
        <time>2021-05-28T22:38:27Z</time>
      </trkpt>
      <trkpt lat="47.97589" lon="2.14071">
        <ele>131</ele>
        <time>2021-05-28T22:38:38Z</time>
      </trkpt>
      <trkpt lat="47.97598" lon="2.14256">
        <ele>134</ele>
        <time>2021-05-28T22:39:00Z</time>
      </trkpt>
      <trkpt lat="47.97588" lon="2.14336">
        <ele>133</ele>
        <time>2021-05-28T22:39:10Z</time>
      </trkpt>
      <trkpt lat="47.9759" lon="2.14505">
        <ele>132</ele>
        <time>2021-05-28T22:39:30Z</time>
      </trkpt>
      <trkpt lat="47.976" lon="2.14558">
        <ele>133</ele>
        <time>2021-05-28T22:39:36Z</time>
      </trkpt>
      <trkpt lat="47.97613" lon="2.14606">
        <ele>134</ele>
        <time>2021-05-28T22:39:43Z</time>
      </trkpt>
      <trkpt lat="47.97621" lon="2.14651">
        <ele>136</ele>
        <time>2021-05-28T22:39:48Z</time>
      </trkpt>
      <trkpt lat="47.97627" lon="2.14797">
        <ele>134</ele>
        <time>2021-05-28T22:40:05Z</time>
      </trkpt>
      <trkpt lat="47.97637" lon="2.14872">
        <ele>133</ele>
        <time>2021-05-28T22:40:15Z</time>
      </trkpt>
      <trkpt lat="47.97735" lon="2.15471">
        <ele>129</ele>
        <time>2021-05-28T22:41:28Z</time>
      </trkpt>
      <trkpt lat="47.97751" lon="2.15546">
        <ele>129</ele>
        <time>2021-05-28T22:41:37Z</time>
      </trkpt>
      <trkpt lat="47.97788" lon="2.1563">
        <ele>128</ele>
        <time>2021-05-28T22:41:49Z</time>
      </trkpt>
      <trkpt lat="47.97796" lon="2.15666">
        <ele>129</ele>
        <time>2021-05-28T22:41:54Z</time>
      </trkpt>
      <trkpt lat="47.97826" lon="2.16048">
        <ele>128</ele>
        <time>2021-05-28T22:42:40Z</time>
      </trkpt>
      <trkpt lat="47.97826" lon="2.16123">
        <ele>129</ele>
        <time>2021-05-28T22:42:49Z</time>
      </trkpt>
      <trkpt lat="47.97833" lon="2.16181">
        <ele>130</ele>
        <time>2021-05-28T22:42:56Z</time>
      </trkpt>
      <trkpt lat="47.97863" lon="2.16356">
        <ele>127</ele>
        <time>2021-05-28T22:43:17Z</time>
      </trkpt>
      <trkpt lat="47.97875" lon="2.16455">
        <ele>122</ele>
        <time>2021-05-28T22:43:29Z</time>
      </trkpt>
      <trkpt lat="47.9787" lon="2.16628">
        <ele>118</ele>
        <time>2021-05-28T22:43:50Z</time>
      </trkpt>
      <trkpt lat="47.97865" lon="2.16655">
        <ele>118</ele>
        <time>2021-05-28T22:43:53Z</time>
      </trkpt>
      <trkpt lat="47.97854" lon="2.16692">
        <ele>118</ele>
        <time>2021-05-28T22:43:58Z</time>
      </trkpt>
      <trkpt lat="47.97842" lon="2.16726">
        <ele>117</ele>
        <time>2021-05-28T22:44:03Z</time>
      </trkpt>
      <trkpt lat="47.97817" lon="2.16773">
        <ele>116</ele>
        <time>2021-05-28T22:44:10Z</time>
      </trkpt>
      <trkpt lat="47.97785" lon="2.16843">
        <ele>115</ele>
        <time>2021-05-28T22:44:20Z</time>
      </trkpt>
      <trkpt lat="47.97628" lon="2.17346">
        <ele>115</ele>
        <time>2021-05-28T22:45:26Z</time>
      </trkpt>
      <trkpt lat="47.97548" lon="2.17592">
        <ele>112</ele>
        <time>2021-05-28T22:45:58Z</time>
      </trkpt>
      <trkpt lat="47.97423" lon="2.17884">
        <ele>111</ele>
        <time>2021-05-28T22:46:40Z</time>
      </trkpt>
      <trkpt lat="47.97559" lon="2.17689">
        <ele>112</ele>
        <time>2021-05-28T22:47:13Z</time>
      </trkpt>
      <trkpt lat="47.97522" lon="2.17653">
        <ele>111</ele>
        <time>2021-05-28T22:47:21Z</time>
      </trkpt>
      <trkpt lat="47.97423" lon="2.17884">
        <ele>111</ele>
        <time>2021-05-28T22:47:54Z</time>
      </trkpt>
      <trkpt lat="47.97538" lon="2.1814">
        <ele>110</ele>
        <time>2021-05-28T22:48:31Z</time>
      </trkpt>
      <trkpt lat="47.97556" lon="2.18169">
        <ele>110</ele>
        <time>2021-05-28T22:48:35Z</time>
      </trkpt>
      <trkpt lat="47.97569" lon="2.18182">
        <ele>111</ele>
        <time>2021-05-28T22:48:38Z</time>
      </trkpt>
      <trkpt lat="47.97577" lon="2.18196">
        <ele>111</ele>
        <time>2021-05-28T22:48:40Z</time>
      </trkpt>
      <trkpt lat="47.97677" lon="2.18325">
        <ele>110</ele>
        <time>2021-05-28T22:49:04Z</time>
      </trkpt>
      <trkpt lat="47.97695" lon="2.1834">
        <ele>111</ele>
        <time>2021-05-28T22:49:07Z</time>
      </trkpt>
      <trkpt lat="47.9775" lon="2.18337">
        <ele>113</ele>
        <time>2021-05-28T22:49:17Z</time>
      </trkpt>
      <trkpt lat="47.97814" lon="2.18341">
        <ele>113</ele>
        <time>2021-05-28T22:49:29Z</time>
      </trkpt>
      <trkpt lat="47.97856" lon="2.1834">
        <ele>114</ele>
        <time>2021-05-28T22:49:36Z</time>
      </trkpt>
      <trkpt lat="47.9788" lon="2.18347">
        <ele>114</ele>
        <time>2021-05-28T22:49:40Z</time>
      </trkpt>
      <trkpt lat="47.97908" lon="2.18361">
        <ele>114</ele>
        <time>2021-05-28T22:49:46Z</time>
      </trkpt>
      <trkpt lat="47.97929" lon="2.18377">
        <ele>114</ele>
        <time>2021-05-28T22:49:50Z</time>
      </trkpt>
      <trkpt lat="47.98005" lon="2.18499">
        <ele>115</ele>
        <time>2021-05-28T22:50:10Z</time>
      </trkpt>
      <trkpt lat="47.98038" lon="2.1858">
        <ele>116</ele>
        <time>2021-05-28T22:50:21Z</time>
      </trkpt>
      <trkpt lat="47.98099" lon="2.18742">
        <ele>116</ele>
        <time>2021-05-28T22:50:43Z</time>
      </trkpt>
      <trkpt lat="47.98112" lon="2.18783">
        <ele>116</ele>
        <time>2021-05-28T22:50:49Z</time>
      </trkpt>
      <trkpt lat="47.98134" lon="2.18902">
        <ele>115</ele>
        <time>2021-05-28T22:51:03Z</time>
      </trkpt>
      <trkpt lat="47.98148" lon="2.18931">
        <ele>115</ele>
        <time>2021-05-28T22:51:08Z</time>
      </trkpt>
      <trkpt lat="47.98174" lon="2.18964">
        <ele>115</ele>
        <time>2021-05-28T22:51:14Z</time>
      </trkpt>
      <trkpt lat="47.98586" lon="2.19344">
        <ele>116</ele>
        <time>2021-05-28T22:52:40Z</time>
      </trkpt>
      <trkpt lat="47.98626" lon="2.19377">
        <ele>115</ele>
        <time>2021-05-28T22:52:48Z</time>
      </trkpt>
      <trkpt lat="47.98807" lon="2.19473">
        <ele>113</ele>
        <time>2021-05-28T22:53:22Z</time>
      </trkpt>
      <trkpt lat="47.98837" lon="2.19487">
        <ele>113</ele>
        <time>2021-05-28T22:53:28Z</time>
      </trkpt>
      <trkpt lat="47.9887" lon="2.19497">
        <ele>114</ele>
        <time>2021-05-28T22:53:34Z</time>
      </trkpt>
      <trkpt lat="47.98884" lon="2.19512">
        <ele>114</ele>
        <time>2021-05-28T22:53:37Z</time>
      </trkpt>
      <trkpt lat="47.98893" lon="2.19526">
        <ele>114</ele>
        <time>2021-05-28T22:53:39Z</time>
      </trkpt>
      <trkpt lat="47.9893" lon="2.1965">
        <ele>113</ele>
        <time>2021-05-28T22:53:55Z</time>
      </trkpt>
      <trkpt lat="47.98964" lon="2.19736">
        <ele>113</ele>
        <time>2021-05-28T22:54:07Z</time>
      </trkpt>
      <trkpt lat="47.98975" lon="2.19775">
        <ele>114</ele>
        <time>2021-05-28T22:54:12Z</time>
      </trkpt>
      <trkpt lat="47.98984" lon="2.19875">
        <ele>115</ele>
        <time>2021-05-28T22:54:24Z</time>
      </trkpt>
      <trkpt lat="47.99002" lon="2.19993">
        <ele>116</ele>
        <time>2021-05-28T22:54:39Z</time>
      </trkpt>
      <trkpt lat="47.99024" lon="2.20094">
        <ele>119</ele>
        <time>2021-05-28T22:54:51Z</time>
      </trkpt>
      <trkpt lat="47.99045" lon="2.2015">
        <ele>120</ele>
        <time>2021-05-28T22:54:59Z</time>
      </trkpt>
      <trkpt lat="47.99062" lon="2.20224">
        <ele>121</ele>
        <time>2021-05-28T22:55:08Z</time>
      </trkpt>
      <trkpt lat="47.99071" lon="2.20311">
        <ele>120</ele>
        <time>2021-05-28T22:55:19Z</time>
      </trkpt>
      <trkpt lat="47.99071" lon="2.20466">
        <ele>120</ele>
        <time>2021-05-28T22:55:37Z</time>
      </trkpt>
      <trkpt lat="47.99065" lon="2.20552">
        <ele>119</ele>
        <time>2021-05-28T22:55:47Z</time>
      </trkpt>
      <trkpt lat="47.99038" lon="2.20702">
        <ele>119</ele>
        <time>2021-05-28T22:56:06Z</time>
      </trkpt>
      <trkpt lat="47.9903" lon="2.20868">
        <ele>119</ele>
        <time>2021-05-28T22:56:26Z</time>
      </trkpt>
      <trkpt lat="47.9903" lon="2.20928">
        <ele>119</ele>
        <time>2021-05-28T22:56:33Z</time>
      </trkpt>
      <trkpt lat="47.99034" lon="2.20984">
        <ele>119</ele>
        <time>2021-05-28T22:56:40Z</time>
      </trkpt>
      <trkpt lat="47.99017" lon="2.20983">
        <ele>119</ele>
        <time>2021-05-28T22:56:43Z</time>
      </trkpt>
      <trkpt lat="47.98999" lon="2.20961">
        <ele>119</ele>
        <time>2021-05-28T22:56:47Z</time>
      </trkpt>
      <trkpt lat="47.98913" lon="2.20893">
        <ele>118</ele>
        <time>2021-05-28T22:57:04Z</time>
      </trkpt>
      <trkpt lat="47.9889" lon="2.20871">
        <ele>117</ele>
        <time>2021-05-28T22:57:09Z</time>
      </trkpt>
      <trkpt lat="47.9885" lon="2.20817">
        <ele>116</ele>
        <time>2021-05-28T22:57:18Z</time>
      </trkpt>
      <trkpt lat="47.98763" lon="2.20678">
        <ele>118</ele>
        <time>2021-05-28T22:57:41Z</time>
      </trkpt>
      <trkpt lat="47.98609" lon="2.20423">
        <ele>116</ele>
        <time>2021-05-28T22:58:22Z</time>
      </trkpt>
      <trkpt lat="47.98516" lon="2.20279">
        <ele>116</ele>
        <time>2021-05-28T22:58:46Z</time>
      </trkpt>
      <trkpt lat="47.98336" lon="2.19925">
        <ele>116</ele>
        <time>2021-05-28T22:59:39Z</time>
      </trkpt>
      <trkpt lat="47.98253" lon="2.19769">
        <ele>115</ele>
        <time>2021-05-28T23:00:03Z</time>
      </trkpt>
      <trkpt lat="47.98208" lon="2.19697">
        <ele>112</ele>
        <time>2021-05-28T23:00:14Z</time>
      </trkpt>
      <trkpt lat="47.98116" lon="2.19531">
        <ele>113</ele>
        <time>2021-05-28T23:00:40Z</time>
      </trkpt>
      <trkpt lat="47.98075" lon="2.19469">
        <ele>111</ele>
        <time>2021-05-28T23:00:50Z</time>
      </trkpt>
      <trkpt lat="47.98024" lon="2.19418">
        <ele>109</ele>
        <time>2021-05-28T23:01:01Z</time>
      </trkpt>
      <trkpt lat="47.97981" lon="2.19381">
        <ele>109</ele>
        <time>2021-05-28T23:01:10Z</time>
      </trkpt>
      <trkpt lat="47.97935" lon="2.1936">
        <ele>109</ele>
        <time>2021-05-28T23:01:19Z</time>
      </trkpt>
      <trkpt lat="47.97863" lon="2.19339">
        <ele>112</ele>
        <time>2021-05-28T23:01:32Z</time>
      </trkpt>
      <trkpt lat="47.97827" lon="2.19322">
        <ele>113</ele>
        <time>2021-05-28T23:01:38Z</time>
      </trkpt>
      <trkpt lat="47.97713" lon="2.1928">
        <ele>113</ele>
        <time>2021-05-28T23:01:59Z</time>
      </trkpt>
      <trkpt lat="47.97653" lon="2.19263">
        <ele>113</ele>
        <time>2021-05-28T23:02:10Z</time>
      </trkpt>
      <trkpt lat="47.97608" lon="2.19263">
        <ele>113</ele>
        <time>2021-05-28T23:02:18Z</time>
      </trkpt>
      <trkpt lat="47.97568" lon="2.19251">
        <ele>113</ele>
        <time>2021-05-28T23:02:25Z</time>
      </trkpt>
      <trkpt lat="47.97526" lon="2.19235">
        <ele>112</ele>
        <time>2021-05-28T23:02:33Z</time>
      </trkpt>
      <trkpt lat="47.97461" lon="2.19203">
        <ele>113</ele>
        <time>2021-05-28T23:02:45Z</time>
      </trkpt>
      <trkpt lat="47.97441" lon="2.19187">
        <ele>114</ele>
        <time>2021-05-28T23:02:49Z</time>
      </trkpt>
      <trkpt lat="47.97409" lon="2.19168">
        <ele>115</ele>
        <time>2021-05-28T23:02:55Z</time>
      </trkpt>
      <trkpt lat="47.97306" lon="2.19093">
        <ele>112</ele>
        <time>2021-05-28T23:03:16Z</time>
      </trkpt>
      <trkpt lat="47.97232" lon="2.19034">
        <ele>113</ele>
        <time>2021-05-28T23:03:31Z</time>
      </trkpt>
      <trkpt lat="47.97164" lon="2.18932">
        <ele>112</ele>
        <time>2021-05-28T23:03:48Z</time>
      </trkpt>
      <trkpt lat="47.97141" lon="2.18906">
        <ele>111</ele>
        <time>2021-05-28T23:03:53Z</time>
      </trkpt>
      <trkpt lat="47.97111" lon="2.18881">
        <ele>112</ele>
        <time>2021-05-28T23:03:59Z</time>
      </trkpt>
      <trkpt lat="47.9708" lon="2.18849">
        <ele>112</ele>
        <time>2021-05-28T23:04:06Z</time>
      </trkpt>
      <trkpt lat="47.97006" lon="2.18731">
        <ele>114</ele>
        <time>2021-05-28T23:04:25Z</time>
      </trkpt>
      <trkpt lat="47.96874" lon="2.18534">
        <ele>115</ele>
        <time>2021-05-28T23:04:58Z</time>
      </trkpt>
      <trkpt lat="47.96825" lon="2.18474">
        <ele>117</ele>
        <time>2021-05-28T23:05:10Z</time>
      </trkpt>
      <trkpt lat="47.96782" lon="2.1844">
        <ele>118</ele>
        <time>2021-05-28T23:05:18Z</time>
      </trkpt>
      <trkpt lat="47.96733" lon="2.18415">
        <ele>117</ele>
        <time>2021-05-28T23:05:27Z</time>
      </trkpt>
      <trkpt lat="47.96649" lon="2.18384">
        <ele>116</ele>
        <time>2021-05-28T23:05:43Z</time>
      </trkpt>
      <trkpt lat="47.96542" lon="2.18332">
        <ele>114</ele>
        <time>2021-05-28T23:06:03Z</time>
      </trkpt>
      <trkpt lat="47.96512" lon="2.18328">
        <ele>115</ele>
        <time>2021-05-28T23:06:08Z</time>
      </trkpt>
      <trkpt lat="47.96491" lon="2.18336">
        <ele>115</ele>
        <time>2021-05-28T23:06:12Z</time>
      </trkpt>
      <trkpt lat="47.96466" lon="2.18333">
        <ele>116</ele>
        <time>2021-05-28T23:06:17Z</time>
      </trkpt>
      <trkpt lat="47.96443" lon="2.1832">
        <ele>117</ele>
        <time>2021-05-28T23:06:21Z</time>
      </trkpt>
      <trkpt lat="47.96425" lon="2.1829">
        <ele>118</ele>
        <time>2021-05-28T23:06:26Z</time>
      </trkpt>
      <trkpt lat="47.96383" lon="2.18245">
        <ele>120</ele>
        <time>2021-05-28T23:06:35Z</time>
      </trkpt>
      <trkpt lat="47.96034" lon="2.17992">
        <ele>117</ele>
        <time>2021-05-28T23:07:44Z</time>
      </trkpt>
      <trkpt lat="47.95879" lon="2.17853">
        <ele>119</ele>
        <time>2021-05-28T23:08:16Z</time>
      </trkpt>
      <trkpt lat="47.95846" lon="2.1781">
        <ele>121</ele>
        <time>2021-05-28T23:08:24Z</time>
      </trkpt>
      <trkpt lat="47.95736" lon="2.17691">
        <ele>124</ele>
        <time>2021-05-28T23:08:48Z</time>
      </trkpt>
      <trkpt lat="47.95671" lon="2.17626">
        <ele>123</ele>
        <time>2021-05-28T23:09:02Z</time>
      </trkpt>
      <trkpt lat="47.95626" lon="2.17592">
        <ele>120</ele>
        <time>2021-05-28T23:09:11Z</time>
      </trkpt>
      <trkpt lat="47.9553" lon="2.17544">
        <ele>113</ele>
        <time>2021-05-28T23:09:29Z</time>
      </trkpt>
      <trkpt lat="47.95354" lon="2.17463">
        <ele>112</ele>
        <time>2021-05-28T23:10:02Z</time>
      </trkpt>
      <trkpt lat="47.95286" lon="2.17427">
        <ele>116</ele>
        <time>2021-05-28T23:10:15Z</time>
      </trkpt>
      <trkpt lat="47.95123" lon="2.17327">
        <ele>119</ele>
        <time>2021-05-28T23:10:46Z</time>
      </trkpt>
      <trkpt lat="47.95056" lon="2.17296">
        <ele>121</ele>
        <time>2021-05-28T23:10:58Z</time>
      </trkpt>
      <trkpt lat="47.95016" lon="2.17272">
        <ele>122</ele>
        <time>2021-05-28T23:11:06Z</time>
      </trkpt>
      <trkpt lat="47.94944" lon="2.17178">
        <ele>119</ele>
        <time>2021-05-28T23:11:23Z</time>
      </trkpt>
      <trkpt lat="47.94754" lon="2.16907">
        <ele>111</ele>
        <time>2021-05-28T23:12:10Z</time>
      </trkpt>
      <trkpt lat="47.94616" lon="2.16719">
        <ele>110</ele>
        <time>2021-05-28T23:12:43Z</time>
      </trkpt>
      <trkpt lat="47.94544" lon="2.16614">
        <ele>109</ele>
        <time>2021-05-28T23:13:01Z</time>
      </trkpt>
      <trkpt lat="47.94447" lon="2.16462">
        <ele>109</ele>
        <time>2021-05-28T23:13:26Z</time>
      </trkpt>
      <trkpt lat="47.94397" lon="2.16379">
        <ele>108</ele>
        <time>2021-05-28T23:13:39Z</time>
      </trkpt>
      <trkpt lat="47.94378" lon="2.16353">
        <ele>108</ele>
        <time>2021-05-28T23:13:44Z</time>
      </trkpt>
      <trkpt lat="47.94324" lon="2.16289">
        <ele>111</ele>
        <time>2021-05-28T23:13:56Z</time>
      </trkpt>
      <trkpt lat="47.94161" lon="2.16059">
        <ele>111</ele>
        <time>2021-05-28T23:14:36Z</time>
      </trkpt>
      <trkpt lat="47.93898" lon="2.15722">
        <ele>110</ele>
        <time>2021-05-28T23:15:38Z</time>
      </trkpt>
      <trkpt lat="47.93857" lon="2.1565">
        <ele>110</ele>
        <time>2021-05-28T23:15:49Z</time>
      </trkpt>
      <trkpt lat="47.93842" lon="2.15619">
        <ele>111</ele>
        <time>2021-05-28T23:15:54Z</time>
      </trkpt>
      <trkpt lat="47.93814" lon="2.1553">
        <ele>111</ele>
        <time>2021-05-28T23:16:05Z</time>
      </trkpt>
      <trkpt lat="47.93802" lon="2.15469">
        <ele>110</ele>
        <time>2021-05-28T23:16:13Z</time>
      </trkpt>
      <trkpt lat="47.93789" lon="2.15284">
        <ele>107</ele>
        <time>2021-05-28T23:16:35Z</time>
      </trkpt>
      <trkpt lat="47.93785" lon="2.15266">
        <ele>107</ele>
        <time>2021-05-28T23:16:37Z</time>
      </trkpt>
      <trkpt lat="47.93777" lon="2.15246">
        <ele>107</ele>
        <time>2021-05-28T23:16:40Z</time>
      </trkpt>
      <trkpt lat="47.93765" lon="2.15227">
        <ele>107</ele>
        <time>2021-05-28T23:16:43Z</time>
      </trkpt>
      <trkpt lat="47.9376" lon="2.1521">
        <ele>107</ele>
        <time>2021-05-28T23:16:45Z</time>
      </trkpt>
      <trkpt lat="47.9375" lon="2.15151">
        <ele>107</ele>
        <time>2021-05-28T23:16:53Z</time>
      </trkpt>
      <trkpt lat="47.93743" lon="2.15133">
        <ele>107</ele>
        <time>2021-05-28T23:16:55Z</time>
      </trkpt>
      <trkpt lat="47.93735" lon="2.15123">
        <ele>106</ele>
        <time>2021-05-28T23:16:57Z</time>
      </trkpt>
      <trkpt lat="47.93727" lon="2.1512">
        <ele>106</ele>
        <time>2021-05-28T23:16:59Z</time>
      </trkpt>
      <trkpt lat="47.93715" lon="2.15121">
        <ele>106</ele>
        <time>2021-05-28T23:17:01Z</time>
      </trkpt>
      <trkpt lat="47.93691" lon="2.15141">
        <ele>107</ele>
        <time>2021-05-28T23:17:06Z</time>
      </trkpt>
      <trkpt lat="47.93683" lon="2.15143">
        <ele>107</ele>
        <time>2021-05-28T23:17:07Z</time>
      </trkpt>
      <trkpt lat="47.93647" lon="2.15137">
        <ele>107</ele>
        <time>2021-05-28T23:17:13Z</time>
      </trkpt>
      <trkpt lat="47.9362" lon="2.15149">
        <ele>107</ele>
        <time>2021-05-28T23:17:18Z</time>
      </trkpt>
      <trkpt lat="47.93559" lon="2.15194">
        <ele>107</ele>
        <time>2021-05-28T23:17:31Z</time>
      </trkpt>
      <trkpt lat="47.93542" lon="2.15198">
        <ele>106</ele>
        <time>2021-05-28T23:17:34Z</time>
      </trkpt>
      <trkpt lat="47.93528" lon="2.15195">
        <ele>105</ele>
        <time>2021-05-28T23:17:36Z</time>
      </trkpt>
      <trkpt lat="47.93508" lon="2.15174">
        <ele>104</ele>
        <time>2021-05-28T23:17:41Z</time>
      </trkpt>
      <trkpt lat="47.93451" lon="2.15093">
        <ele>105</ele>
        <time>2021-05-28T23:17:55Z</time>
      </trkpt>
      <trkpt lat="47.93386" lon="2.15011">
        <ele>105</ele>
        <time>2021-05-28T23:18:10Z</time>
      </trkpt>
      <trkpt lat="47.93267" lon="2.14889">
        <ele>105</ele>
        <time>2021-05-28T23:18:35Z</time>
      </trkpt>
      <trkpt lat="47.93252" lon="2.14878">
        <ele>105</ele>
        <time>2021-05-28T23:18:38Z</time>
      </trkpt>
      <trkpt lat="47.93248" lon="2.14884">
        <ele>105</ele>
        <time>2021-05-28T23:18:39Z</time>
      </trkpt>
      <trkpt lat="47.93153" lon="2.14662">
        <ele>106</ele>
        <time>2021-05-28T23:19:11Z</time>
      </trkpt>
      <trkpt lat="47.93146" lon="2.14666">
        <ele>106</ele>
        <time>2021-05-28T23:19:12Z</time>
      </trkpt>
      <trkpt lat="47.93139" lon="2.14665">
        <ele>106</ele>
        <time>2021-05-28T23:19:13Z</time>
      </trkpt>
      <trkpt lat="47.93132" lon="2.1466">
        <ele>106</ele>
        <time>2021-05-28T23:19:15Z</time>
      </trkpt>
      <trkpt lat="47.93069" lon="2.14571">
        <ele>106</ele>
        <time>2021-05-28T23:19:30Z</time>
      </trkpt>
      <trkpt lat="47.93003" lon="2.14465">
        <ele>106</ele>
        <time>2021-05-28T23:19:47Z</time>
      </trkpt>
      <trkpt lat="47.92975" lon="2.14439">
        <ele>105</ele>
        <time>2021-05-28T23:19:53Z</time>
      </trkpt>
      <trkpt lat="47.92907" lon="2.14417">
        <ele>105</ele>
        <time>2021-05-28T23:20:06Z</time>
      </trkpt>
      <trkpt lat="47.9281" lon="2.14338">
        <ele>105</ele>
        <time>2021-05-28T23:20:25Z</time>
      </trkpt>
      <trkpt lat="47.92786" lon="2.14315">
        <ele>105</ele>
        <time>2021-05-28T23:20:30Z</time>
      </trkpt>
      <trkpt lat="47.92766" lon="2.14289">
        <ele>106</ele>
        <time>2021-05-28T23:20:35Z</time>
      </trkpt>
      <trkpt lat="47.92771" lon="2.1428">
        <ele>106</ele>
        <time>2021-05-28T23:20:36Z</time>
      </trkpt>
      <trkpt lat="47.92654" lon="2.14066">
        <ele>105</ele>
        <time>2021-05-28T23:21:09Z</time>
      </trkpt>
      <trkpt lat="47.92637" lon="2.14043">
        <ele>104</ele>
        <time>2021-05-28T23:21:13Z</time>
      </trkpt>
      <trkpt lat="47.92592" lon="2.14004">
        <ele>104</ele>
        <time>2021-05-28T23:21:23Z</time>
      </trkpt>
      <trkpt lat="47.92581" lon="2.13991">
        <ele>104</ele>
        <time>2021-05-28T23:21:25Z</time>
      </trkpt>
      <trkpt lat="47.92505" lon="2.13879">
        <ele>105</ele>
        <time>2021-05-28T23:21:44Z</time>
      </trkpt>
      <trkpt lat="47.92493" lon="2.13854">
        <ele>104</ele>
        <time>2021-05-28T23:21:48Z</time>
      </trkpt>
      <trkpt lat="47.92446" lon="2.13717">
        <ele>103</ele>
        <time>2021-05-28T23:22:06Z</time>
      </trkpt>
      <trkpt lat="47.92419" lon="2.13662">
        <ele>104</ele>
        <time>2021-05-28T23:22:14Z</time>
      </trkpt>
      <trkpt lat="47.92412" lon="2.13628">
        <ele>105</ele>
        <time>2021-05-28T23:22:19Z</time>
      </trkpt>
      <trkpt lat="47.92346" lon="2.13655">
        <ele>105</ele>
        <time>2021-05-28T23:22:31Z</time>
      </trkpt>
      <trkpt lat="47.92298" lon="2.13668">
        <ele>105</ele>
        <time>2021-05-28T23:22:39Z</time>
      </trkpt>
      <trkpt lat="47.92243" lon="2.13675">
        <ele>106</ele>
        <time>2021-05-28T23:22:49Z</time>
      </trkpt>
      <trkpt lat="47.92216" lon="2.13676">
        <ele>106</ele>
        <time>2021-05-28T23:22:54Z</time>
      </trkpt>
      <trkpt lat="47.92178" lon="2.13672">
        <ele>105</ele>
        <time>2021-05-28T23:23:01Z</time>
      </trkpt>
      <trkpt lat="47.9215" lon="2.13664">
        <ele>106</ele>
        <time>2021-05-28T23:23:06Z</time>
      </trkpt>
      <trkpt lat="47.92069" lon="2.13628">
        <ele>108</ele>
        <time>2021-05-28T23:23:21Z</time>
      </trkpt>
      <trkpt lat="47.91857" lon="2.13956">
        <ele>116</ele>
        <time>2021-05-28T23:24:15Z</time>
      </trkpt>
      <trkpt lat="47.91813" lon="2.14084">
        <ele>119</ele>
        <time>2021-05-28T23:24:32Z</time>
      </trkpt>
      <trkpt lat="47.91753" lon="2.14247">
        <ele>123</ele>
        <time>2021-05-28T23:24:55Z</time>
      </trkpt>
      <trkpt lat="47.91722" lon="2.14321">
        <ele>124</ele>
        <time>2021-05-28T23:25:05Z</time>
      </trkpt>
      <trkpt lat="47.91665" lon="2.14487">
        <ele>120</ele>
        <time>2021-05-28T23:25:27Z</time>
      </trkpt>
      <trkpt lat="47.91623" lon="2.14592">
        <ele>120</ele>
        <time>2021-05-28T23:25:42Z</time>
      </trkpt>
      <trkpt lat="47.91534" lon="2.14749">
        <ele>118</ele>
        <time>2021-05-28T23:26:06Z</time>
      </trkpt>
      <trkpt lat="47.91499" lon="2.14822">
        <ele>118</ele>
        <time>2021-05-28T23:26:17Z</time>
      </trkpt>
      <trkpt lat="47.91483" lon="2.14883">
        <ele>118</ele>
        <time>2021-05-28T23:26:25Z</time>
      </trkpt>
      <trkpt lat="47.9143" lon="2.15046">
        <ele>118</ele>
        <time>2021-05-28T23:26:47Z</time>
      </trkpt>
      <trkpt lat="47.91425" lon="2.15067">
        <ele>119</ele>
        <time>2021-05-28T23:26:49Z</time>
      </trkpt>
      <trkpt lat="47.91402" lon="2.15226">
        <ele>123</ele>
        <time>2021-05-28T23:27:09Z</time>
      </trkpt>
      <trkpt lat="47.91398" lon="2.15283">
        <ele>122</ele>
        <time>2021-05-28T23:27:15Z</time>
      </trkpt>
      <trkpt lat="47.91383" lon="2.15365">
        <ele>119</ele>
        <time>2021-05-28T23:27:26Z</time>
      </trkpt>
      <trkpt lat="47.91358" lon="2.15405">
        <ele>118</ele>
        <time>2021-05-28T23:27:32Z</time>
      </trkpt>
      <trkpt lat="47.91287" lon="2.15465">
        <ele>118</ele>
        <time>2021-05-28T23:27:47Z</time>
      </trkpt>
      <trkpt lat="47.91268" lon="2.15489">
        <ele>117</ele>
        <time>2021-05-28T23:27:51Z</time>
      </trkpt>
      <trkpt lat="47.91253" lon="2.15517">
        <ele>117</ele>
        <time>2021-05-28T23:27:55Z</time>
      </trkpt>
      <trkpt lat="47.91242" lon="2.15547">
        <ele>117</ele>
        <time>2021-05-28T23:27:59Z</time>
      </trkpt>
      <trkpt lat="47.9122" lon="2.15635">
        <ele>118</ele>
        <time>2021-05-28T23:28:11Z</time>
      </trkpt>
      <trkpt lat="47.91184" lon="2.15831">
        <ele>117</ele>
        <time>2021-05-28T23:28:35Z</time>
      </trkpt>
      <trkpt lat="47.91174" lon="2.15971">
        <ele>116</ele>
        <time>2021-05-28T23:28:52Z</time>
      </trkpt>
      <trkpt lat="47.91167" lon="2.1639">
        <ele>117</ele>
        <time>2021-05-28T23:29:42Z</time>
      </trkpt>
      <trkpt lat="47.91106" lon="2.16308">
        <ele>117</ele>
        <time>2021-05-28T23:29:56Z</time>
      </trkpt>
      <trkpt lat="47.91058" lon="2.16217">
        <ele>117</ele>
        <time>2021-05-28T23:30:10Z</time>
      </trkpt>
      <trkpt lat="47.91022" lon="2.16159">
        <ele>117</ele>
        <time>2021-05-28T23:30:19Z</time>
      </trkpt>
      <trkpt lat="47.91009" lon="2.16144">
        <ele>116</ele>
        <time>2021-05-28T23:30:22Z</time>
      </trkpt>
      <trkpt lat="47.90882" lon="2.16048">
        <ele>113</ele>
        <time>2021-05-28T23:30:48Z</time>
      </trkpt>
      <trkpt lat="47.90831" lon="2.15997">
        <ele>111</ele>
        <time>2021-05-28T23:30:59Z</time>
      </trkpt>
      <trkpt lat="47.90743" lon="2.1589">
        <ele>113</ele>
        <time>2021-05-28T23:31:19Z</time>
      </trkpt>
      <trkpt lat="47.90679" lon="2.16515">
        <ele>113</ele>
        <time>2021-05-28T23:32:34Z</time>
      </trkpt>
      <trkpt lat="47.90681" lon="2.16537">
        <ele>114</ele>
        <time>2021-05-28T23:32:37Z</time>
      </trkpt>
      <trkpt lat="47.90564" lon="2.16562">
        <ele>117</ele>
        <time>2021-05-28T23:32:58Z</time>
      </trkpt>
      <trkpt lat="47.9055" lon="2.16568">
        <ele>117</ele>
        <time>2021-05-28T23:33:01Z</time>
      </trkpt>
      <trkpt lat="47.90293" lon="2.16851">
        <ele>118</ele>
        <time>2021-05-28T23:33:57Z</time>
      </trkpt>
      <trkpt lat="47.90287" lon="2.16868">
        <ele>118</ele>
        <time>2021-05-28T23:34:00Z</time>
      </trkpt>
      <trkpt lat="47.90282" lon="2.1691">
        <ele>117</ele>
        <time>2021-05-28T23:34:05Z</time>
      </trkpt>
      <trkpt lat="47.90241" lon="2.16963">
        <ele>117</ele>
        <time>2021-05-28T23:34:14Z</time>
      </trkpt>
      <trkpt lat="47.90048" lon="2.16528">
        <ele>117</ele>
        <time>2021-05-28T23:35:17Z</time>
      </trkpt>
      <trkpt lat="47.89896" lon="2.16116">
        <ele>117</ele>
        <time>2021-05-28T23:36:13Z</time>
      </trkpt>
      <trkpt lat="47.89895" lon="2.16107">
        <ele>117</ele>
        <time>2021-05-28T23:36:14Z</time>
      </trkpt>
      <trkpt lat="47.89887" lon="2.16099">
        <ele>117</ele>
        <time>2021-05-28T23:36:16Z</time>
      </trkpt>
      <trkpt lat="47.89854" lon="2.16025">
        <ele>117</ele>
        <time>2021-05-28T23:36:26Z</time>
      </trkpt>
      <trkpt lat="47.89607" lon="2.15504">
        <ele>117</ele>
        <time>2021-05-28T23:37:42Z</time>
      </trkpt>
      <trkpt lat="47.89552" lon="2.15395">
        <ele>117</ele>
        <time>2021-05-28T23:37:59Z</time>
      </trkpt>
      <trkpt lat="47.89512" lon="2.1533">
        <ele>118</ele>
        <time>2021-05-28T23:38:09Z</time>
      </trkpt>
      <trkpt lat="47.89339" lon="2.1509">
        <ele>118</ele>
        <time>2021-05-28T23:38:51Z</time>
      </trkpt>
      <trkpt lat="47.89227" lon="2.14907">
        <ele>117</ele>
        <time>2021-05-28T23:39:21Z</time>
      </trkpt>
      <trkpt lat="47.89118" lon="2.14759">
        <ele>118</ele>
        <time>2021-05-28T23:39:47Z</time>
      </trkpt>
      <trkpt lat="47.8909" lon="2.14725">
        <ele>117</ele>
        <time>2021-05-28T23:39:53Z</time>
      </trkpt>
      <trkpt lat="47.89061" lon="2.14693">
        <ele>116</ele>
        <time>2021-05-28T23:40:00Z</time>
      </trkpt>
      <trkpt lat="47.89021" lon="2.14658">
        <ele>116</ele>
        <time>2021-05-28T23:40:08Z</time>
      </trkpt>
      <trkpt lat="47.88914" lon="2.14575">
        <ele>117</ele>
        <time>2021-05-28T23:40:29Z</time>
      </trkpt>
      <trkpt lat="47.8875" lon="2.14406">
        <ele>114</ele>
        <time>2021-05-28T23:41:05Z</time>
      </trkpt>
      <trkpt lat="47.88658" lon="2.14317">
        <ele>115</ele>
        <time>2021-05-28T23:41:24Z</time>
      </trkpt>
      <trkpt lat="47.88571" lon="2.14226">
        <ele>115</ele>
        <time>2021-05-28T23:41:43Z</time>
      </trkpt>
      <trkpt lat="47.88421" lon="2.14062">
        <ele>115</ele>
        <time>2021-05-28T23:42:16Z</time>
      </trkpt>
      <trkpt lat="47.884" lon="2.14033">
        <ele>115</ele>
        <time>2021-05-28T23:42:21Z</time>
      </trkpt>
      <trkpt lat="47.88407" lon="2.13989">
        <ele>116</ele>
        <time>2021-05-28T23:42:27Z</time>
      </trkpt>
      <trkpt lat="47.88405" lon="2.13946">
        <ele>116</ele>
        <time>2021-05-28T23:42:32Z</time>
      </trkpt>
      <trkpt lat="47.88398" lon="2.13989">
        <ele>115</ele>
        <time>2021-05-28T23:42:37Z</time>
      </trkpt>
      <trkpt lat="47.88386" lon="2.1402">
        <ele>114</ele>
        <time>2021-05-28T23:42:42Z</time>
      </trkpt>
      <trkpt lat="47.88393" lon="2.14027">
        <ele>115</ele>
        <time>2021-05-28T23:42:43Z</time>
      </trkpt>
      <trkpt lat="47.88342" lon="2.14273">
        <ele>117</ele>
        <time>2021-05-28T23:43:14Z</time>
      </trkpt>
      <trkpt lat="47.88336" lon="2.14296">
        <ele>118</ele>
        <time>2021-05-28T23:43:17Z</time>
      </trkpt>
      <trkpt lat="47.88322" lon="2.14331">
        <ele>120</ele>
        <time>2021-05-28T23:43:22Z</time>
      </trkpt>
      <trkpt lat="47.88292" lon="2.14386">
        <ele>119</ele>
        <time>2021-05-28T23:43:30Z</time>
      </trkpt>
      <trkpt lat="47.88242" lon="2.14451">
        <ele>119</ele>
        <time>2021-05-28T23:43:42Z</time>
      </trkpt>
      <trkpt lat="47.88187" lon="2.14505">
        <ele>117</ele>
        <time>2021-05-28T23:43:54Z</time>
      </trkpt>
      <trkpt lat="47.87992" lon="2.14649">
        <ele>117</ele>
        <time>2021-05-28T23:44:32Z</time>
      </trkpt>
      <trkpt lat="47.87987" lon="2.14696">
        <ele>117</ele>
        <time>2021-05-28T23:44:38Z</time>
      </trkpt>
      <trkpt lat="47.87992" lon="2.14649">
        <ele>117</ele>
        <time>2021-05-28T23:44:44Z</time>
      </trkpt>
      <trkpt lat="47.87851" lon="2.14458">
        <ele>119</ele>
        <time>2021-05-28T23:45:18Z</time>
      </trkpt>
      <trkpt lat="47.87743" lon="2.14148">
        <ele>115</ele>
        <time>2021-05-28T23:45:59Z</time>
      </trkpt>
      <trkpt lat="47.876" lon="2.13522">
        <ele>115</ele>
        <time>2021-05-28T23:47:18Z</time>
      </trkpt>
      <trkpt lat="47.87553" lon="2.13139">
        <ele>114</ele>
        <time>2021-05-28T23:48:05Z</time>
      </trkpt>
      <trkpt lat="47.8754" lon="2.13049">
        <ele>115</ele>
        <time>2021-05-28T23:48:16Z</time>
      </trkpt>
      <trkpt lat="47.87525" lon="2.13002">
        <ele>115</ele>
        <time>2021-05-28T23:48:22Z</time>
      </trkpt>
      <trkpt lat="47.87473" lon="2.12867">
        <ele>114</ele>
        <time>2021-05-28T23:48:40Z</time>
      </trkpt>
      <trkpt lat="47.87472" lon="2.12841">
        <ele>114</ele>
        <time>2021-05-28T23:48:44Z</time>
      </trkpt>
      <trkpt lat="47.87491" lon="2.12767">
        <ele>115</ele>
        <time>2021-05-28T23:48:53Z</time>
      </trkpt>
      <trkpt lat="47.87424" lon="2.12757">
        <ele>114</ele>
        <time>2021-05-28T23:49:05Z</time>
      </trkpt>
      <trkpt lat="47.87421" lon="2.12765">
        <ele>114</ele>
        <time>2021-05-28T23:49:06Z</time>
      </trkpt>
      <trkpt lat="47.874" lon="2.12762">
        <ele>114</ele>
        <time>2021-05-28T23:49:10Z</time>
      </trkpt>
      <trkpt lat="47.87383" lon="2.12767">
        <ele>114</ele>
        <time>2021-05-28T23:49:13Z</time>
      </trkpt>
      <trkpt lat="47.87376" lon="2.1278">
        <ele>114</ele>
        <time>2021-05-28T23:49:15Z</time>
      </trkpt>
      <trkpt lat="47.87356" lon="2.12853">
        <ele>114</ele>
        <time>2021-05-28T23:49:24Z</time>
      </trkpt>
      <trkpt lat="47.87373" lon="2.12859">
        <ele>114</ele>
        <time>2021-05-28T23:49:27Z</time>
      </trkpt>
      <trkpt lat="47.87396" lon="2.12823">
        <ele>114</ele>
        <time>2021-05-28T23:49:33Z</time>
      </trkpt>
      <trkpt lat="47.87406" lon="2.1279">
        <ele>114</ele>
        <time>2021-05-28T23:49:38Z</time>
      </trkpt>
      <trkpt lat="47.87396" lon="2.12823">
        <ele>114</ele>
        <time>2021-05-28T23:49:42Z</time>
      </trkpt>
      <trkpt lat="47.87373" lon="2.12859">
        <ele>114</ele>
        <time>2021-05-28T23:49:48Z</time>
      </trkpt>
      <trkpt lat="47.8735" lon="2.1285">
        <ele>114</ele>
        <time>2021-05-28T23:49:52Z</time>
      </trkpt>
      <trkpt lat="47.87383" lon="2.12742">
        <ele>114</ele>
        <time>2021-05-28T23:50:06Z</time>
      </trkpt>
      <trkpt lat="47.87256" lon="2.12687">
        <ele>114</ele>
        <time>2021-05-28T23:50:30Z</time>
      </trkpt>
      <trkpt lat="47.87283" lon="2.12614">
        <ele>113</ele>
        <time>2021-05-28T23:50:40Z</time>
      </trkpt>
      <trkpt lat="47.87305" lon="2.12534">
        <ele>111</ele>
        <time>2021-05-28T23:50:50Z</time>
      </trkpt>
      <trkpt lat="47.87333" lon="2.12387">
        <ele>108</ele>
        <time>2021-05-28T23:51:08Z</time>
      </trkpt>
      <trkpt lat="47.87385" lon="2.12177">
        <ele>112</ele>
        <time>2021-05-28T23:51:35Z</time>
      </trkpt>
      <trkpt lat="47.87488" lon="2.11739">
        <ele>116</ele>
        <time>2021-05-28T23:52:30Z</time>
      </trkpt>
      <trkpt lat="47.87509" lon="2.11664">
        <ele>115</ele>
        <time>2021-05-28T23:52:40Z</time>
      </trkpt>
      <trkpt lat="47.87543" lon="2.11567">
        <ele>115</ele>
        <time>2021-05-28T23:52:53Z</time>
      </trkpt>
      <trkpt lat="47.87555" lon="2.11518">
        <ele>115</ele>
        <time>2021-05-28T23:52:59Z</time>
      </trkpt>
      <trkpt lat="47.8756" lon="2.11479">
        <ele>115</ele>
        <time>2021-05-28T23:53:04Z</time>
      </trkpt>
      <trkpt lat="47.87562" lon="2.11438">
        <ele>114</ele>
        <time>2021-05-28T23:53:09Z</time>
      </trkpt>
      <trkpt lat="47.87574" lon="2.11351">
        <ele>114</ele>
        <time>2021-05-28T23:53:20Z</time>
      </trkpt>
      <trkpt lat="47.87621" lon="2.11067">
        <ele>111</ele>
        <time>2021-05-28T23:53:55Z</time>
      </trkpt>
      <trkpt lat="47.87633" lon="2.11008">
        <ele>110</ele>
        <time>2021-05-28T23:54:02Z</time>
      </trkpt>
      <trkpt lat="47.87907" lon="2.09948">
        <ele>118</ele>
        <time>2021-05-28T23:56:18Z</time>
      </trkpt>
      <trkpt lat="47.87552" lon="2.09531">
        <ele>116</ele>
        <time>2021-05-28T23:57:38Z</time>
      </trkpt>
      <trkpt lat="47.8757" lon="2.09329">
        <ele>114</ele>
        <time>2021-05-28T23:58:02Z</time>
      </trkpt>
      <trkpt lat="47.87576" lon="2.09213">
        <ele>115</ele>
        <time>2021-05-28T23:58:16Z</time>
      </trkpt>
      <trkpt lat="47.87563" lon="2.0895">
        <ele>117</ele>
        <time>2021-05-28T23:58:48Z</time>
      </trkpt>
      <trkpt lat="47.8757" lon="2.08923">
        <ele>117</ele>
        <time>2021-05-28T23:58:51Z</time>
      </trkpt>
      <trkpt lat="47.87676" lon="2.087">
        <ele>116</ele>
        <time>2021-05-28T23:59:24Z</time>
      </trkpt>
      <trkpt lat="47.87703" lon="2.08524">
        <ele>116</ele>
        <time>2021-05-28T23:59:45Z</time>
      </trkpt>
      <trkpt lat="47.87697" lon="2.08381">
        <ele>115</ele>
        <time>2021-05-29T00:00:02Z</time>
      </trkpt>
      <trkpt lat="47.87702" lon="2.0826">
        <ele>113</ele>
        <time>2021-05-29T00:00:17Z</time>
      </trkpt>
      <trkpt lat="47.87706" lon="2.08236">
        <ele>113</ele>
        <time>2021-05-29T00:00:20Z</time>
      </trkpt>
      <trkpt lat="47.87713" lon="2.08213">
        <ele>112</ele>
        <time>2021-05-29T00:00:23Z</time>
      </trkpt>
      <trkpt lat="47.8773" lon="2.08186">
        <ele>111</ele>
        <time>2021-05-29T00:00:27Z</time>
      </trkpt>
      <trkpt lat="47.87759" lon="2.0815">
        <ele>111</ele>
        <time>2021-05-29T00:00:34Z</time>
      </trkpt>
      <trkpt lat="47.87773" lon="2.08128">
        <ele>111</ele>
        <time>2021-05-29T00:00:38Z</time>
      </trkpt>
      <trkpt lat="47.87751" lon="2.0813">
        <ele>111</ele>
        <time>2021-05-29T00:00:41Z</time>
      </trkpt>
      <trkpt lat="47.87569" lon="2.08104">
        <ele>106</ele>
        <time>2021-05-29T00:01:14Z</time>
      </trkpt>
      <trkpt lat="47.87504" lon="2.08042">
        <ele>102</ele>
        <time>2021-05-29T00:01:28Z</time>
      </trkpt>
      <trkpt lat="47.87469" lon="2.07995">
        <ele>102</ele>
        <time>2021-05-29T00:01:36Z</time>
      </trkpt>
      <trkpt lat="47.87336" lon="2.07689">
        <ele>98</ele>
        <time>2021-05-29T00:02:20Z</time>
      </trkpt>
      <trkpt lat="47.87325" lon="2.07656">
        <ele>97</ele>
        <time>2021-05-29T00:02:24Z</time>
      </trkpt>
      <trkpt lat="47.8729" lon="2.0757">
        <ele>99</ele>
        <time>2021-05-29T00:02:36Z</time>
      </trkpt>
      <trkpt lat="47.87285" lon="2.07479">
        <ele>99</ele>
        <time>2021-05-29T00:02:47Z</time>
      </trkpt>
      <trkpt lat="47.87276" lon="2.07393">
        <ele>98</ele>
        <time>2021-05-29T00:02:57Z</time>
      </trkpt>
      <trkpt lat="47.8726" lon="2.07297">
        <ele>97</ele>
        <time>2021-05-29T00:03:09Z</time>
      </trkpt>
      <trkpt lat="47.87207" lon="2.07034">
        <ele>96</ele>
        <time>2021-05-29T00:03:42Z</time>
      </trkpt>
      <trkpt lat="47.8717" lon="2.06865">
        <ele>97</ele>
        <time>2021-05-29T00:04:03Z</time>
      </trkpt>
      <trkpt lat="47.87128" lon="2.06689">
        <ele>98</ele>
        <time>2021-05-29T00:04:25Z</time>
      </trkpt>
      <trkpt lat="47.87119" lon="2.06659">
        <ele>99</ele>
        <time>2021-05-29T00:04:29Z</time>
      </trkpt>
      <trkpt lat="47.87034" lon="2.06471">
        <ele>98</ele>
        <time>2021-05-29T00:04:56Z</time>
      </trkpt>
      <trkpt lat="47.87005" lon="2.06398">
        <ele>97</ele>
        <time>2021-05-29T00:05:06Z</time>
      </trkpt>
      <trkpt lat="47.86951" lon="2.06293">
        <ele>98</ele>
        <time>2021-05-29T00:05:22Z</time>
      </trkpt>
      <trkpt lat="47.86868" lon="2.0607">
        <ele>97</ele>
        <time>2021-05-29T00:05:53Z</time>
      </trkpt>
      <trkpt lat="47.8685" lon="2.06001">
        <ele>98</ele>
        <time>2021-05-29T00:06:02Z</time>
      </trkpt>
      <trkpt lat="47.86829" lon="2.05934">
        <ele>99</ele>
        <time>2021-05-29T00:06:10Z</time>
      </trkpt>
      <trkpt lat="47.86821" lon="2.05875">
        <ele>99</ele>
        <time>2021-05-29T00:06:18Z</time>
      </trkpt>
      <trkpt lat="47.86803" lon="2.05781">
        <ele>99</ele>
        <time>2021-05-29T00:06:29Z</time>
      </trkpt>
      <trkpt lat="47.86793" lon="2.05742">
        <ele>99</ele>
        <time>2021-05-29T00:06:34Z</time>
      </trkpt>
      <trkpt lat="47.86777" lon="2.05708">
        <ele>99</ele>
        <time>2021-05-29T00:06:39Z</time>
      </trkpt>
      <trkpt lat="47.86731" lon="2.0566">
        <ele>98</ele>
        <time>2021-05-29T00:06:49Z</time>
      </trkpt>
      <trkpt lat="47.8659" lon="2.05528">
        <ele>99</ele>
        <time>2021-05-29T00:07:19Z</time>
      </trkpt>
      <trkpt lat="47.86531" lon="2.05479">
        <ele>98</ele>
        <time>2021-05-29T00:07:31Z</time>
      </trkpt>
      <trkpt lat="47.86516" lon="2.05471">
        <ele>98</ele>
        <time>2021-05-29T00:07:34Z</time>
      </trkpt>
      <trkpt lat="47.86479" lon="2.0546">
        <ele>97</ele>
        <time>2021-05-29T00:07:40Z</time>
      </trkpt>
      <trkpt lat="47.86392" lon="2.05457">
        <ele>95</ele>
        <time>2021-05-29T00:07:56Z</time>
      </trkpt>
      <trkpt lat="47.86378" lon="2.05453">
        <ele>95</ele>
        <time>2021-05-29T00:07:58Z</time>
      </trkpt>
      <trkpt lat="47.86352" lon="2.05433">
        <ele>97</ele>
        <time>2021-05-29T00:08:04Z</time>
      </trkpt>
      <trkpt lat="47.86302" lon="2.0536">
        <ele>97</ele>
        <time>2021-05-29T00:08:16Z</time>
      </trkpt>
      <trkpt lat="47.86296" lon="2.05346">
        <ele>96</ele>
        <time>2021-05-29T00:08:18Z</time>
      </trkpt>
      <trkpt lat="47.86291" lon="2.05313">
        <ele>97</ele>
        <time>2021-05-29T00:08:22Z</time>
      </trkpt>
      <trkpt lat="47.86292" lon="2.05095">
        <ele>99</ele>
        <time>2021-05-29T00:08:48Z</time>
      </trkpt>
      <trkpt lat="47.8633" lon="2.04764">
        <ele>99</ele>
        <time>2021-05-29T00:09:28Z</time>
      </trkpt>
      <trkpt lat="47.86347" lon="2.04536">
        <ele>98</ele>
        <time>2021-05-29T00:09:56Z</time>
      </trkpt>
      <trkpt lat="47.86349" lon="2.04468">
        <ele>98</ele>
        <time>2021-05-29T00:10:04Z</time>
      </trkpt>
      <trkpt lat="47.86353" lon="2.04437">
        <ele>98</ele>
        <time>2021-05-29T00:10:07Z</time>
      </trkpt>
      <trkpt lat="47.86362" lon="2.04407">
        <ele>97</ele>
        <time>2021-05-29T00:10:11Z</time>
      </trkpt>
      <trkpt lat="47.86375" lon="2.04377">
        <ele>97</ele>
        <time>2021-05-29T00:10:16Z</time>
      </trkpt>
      <trkpt lat="47.8657" lon="2.04004">
        <ele>98</ele>
        <time>2021-05-29T00:11:12Z</time>
      </trkpt>
      <trkpt lat="47.86571" lon="2.03981">
        <ele>98</ele>
        <time>2021-05-29T00:11:15Z</time>
      </trkpt>
      <trkpt lat="47.86568" lon="2.03972">
        <ele>98</ele>
        <time>2021-05-29T00:11:16Z</time>
      </trkpt>
      <trkpt lat="47.86556" lon="2.03965">
        <ele>98</ele>
        <time>2021-05-29T00:11:18Z</time>
      </trkpt>
      <trkpt lat="47.86568" lon="2.03972">
        <ele>98</ele>
        <time>2021-05-29T00:11:21Z</time>
      </trkpt>
      <trkpt lat="47.8658" lon="2.03972">
        <ele>98</ele>
        <time>2021-05-29T00:11:23Z</time>
      </trkpt>
      <trkpt lat="47.86587" lon="2.03967">
        <ele>98</ele>
        <time>2021-05-29T00:11:24Z</time>
      </trkpt>
      <trkpt lat="47.86618" lon="2.03909">
        <ele>98</ele>
        <time>2021-05-29T00:11:33Z</time>
      </trkpt>
      <trkpt lat="47.86647" lon="2.03848">
        <ele>97</ele>
        <time>2021-05-29T00:11:42Z</time>
      </trkpt>
      <trkpt lat="47.86698" lon="2.03714">
        <ele>99</ele>
        <time>2021-05-29T00:12:00Z</time>
      </trkpt>
      <trkpt lat="47.86717" lon="2.03681">
        <ele>99</ele>
        <time>2021-05-29T00:12:05Z</time>
      </trkpt>
      <trkpt lat="47.86731" lon="2.0367">
        <ele>99</ele>
        <time>2021-05-29T00:12:08Z</time>
      </trkpt>
      <trkpt lat="47.86737" lon="2.03669">
        <ele>99</ele>
        <time>2021-05-29T00:12:09Z</time>
      </trkpt>
      <trkpt lat="47.86956" lon="2.0368">
        <ele>97</ele>
        <time>2021-05-29T00:12:48Z</time>
      </trkpt>
      <trkpt lat="47.87023" lon="2.03671">
        <ele>97</ele>
        <time>2021-05-29T00:13:00Z</time>
      </trkpt>
      <trkpt lat="47.87113" lon="2.03654">
        <ele>96</ele>
        <time>2021-05-29T00:13:16Z</time>
      </trkpt>
      <trkpt lat="47.87246" lon="2.03671">
        <ele>95</ele>
        <time>2021-05-29T00:13:40Z</time>
      </trkpt>
      <trkpt lat="47.87269" lon="2.03671">
        <ele>95</ele>
        <time>2021-05-29T00:13:44Z</time>
      </trkpt>
      <trkpt lat="47.87324" lon="2.03663">
        <ele>96</ele>
        <time>2021-05-29T00:13:54Z</time>
      </trkpt>
      <trkpt lat="47.8746" lon="2.03631">
        <ele>97</ele>
        <time>2021-05-29T00:14:19Z</time>
      </trkpt>
      <trkpt lat="47.87625" lon="2.03568">
        <ele>95</ele>
        <time>2021-05-29T00:14:49Z</time>
      </trkpt>
      <trkpt lat="47.87639" lon="2.03566">
        <ele>95</ele>
        <time>2021-05-29T00:14:51Z</time>
      </trkpt>
      <trkpt lat="47.87721" lon="2.03579">
        <ele>95</ele>
        <time>2021-05-29T00:15:06Z</time>
      </trkpt>
      <trkpt lat="47.87743" lon="2.0358">
        <ele>95</ele>
        <time>2021-05-29T00:15:10Z</time>
      </trkpt>
      <trkpt lat="47.87761" lon="2.03578">
        <ele>95</ele>
        <time>2021-05-29T00:15:13Z</time>
      </trkpt>
      <trkpt lat="47.878" lon="2.03567">
        <ele>95</ele>
        <time>2021-05-29T00:15:20Z</time>
      </trkpt>
      <trkpt lat="47.87844" lon="2.03549">
        <ele>96</ele>
        <time>2021-05-29T00:15:28Z</time>
      </trkpt>
      <trkpt lat="47.87907" lon="2.03519">
        <ele>97</ele>
        <time>2021-05-29T00:15:40Z</time>
      </trkpt>
      <trkpt lat="47.87958" lon="2.03478">
        <ele>97</ele>
        <time>2021-05-29T00:15:51Z</time>
      </trkpt>
      <trkpt lat="47.88031" lon="2.03406">
        <ele>96</ele>
        <time>2021-05-29T00:16:06Z</time>
      </trkpt>
      <trkpt lat="47.88105" lon="2.03342">
        <ele>95</ele>
        <time>2021-05-29T00:16:21Z</time>
      </trkpt>
      <trkpt lat="47.88188" lon="2.03254">
        <ele>94</ele>
        <time>2021-05-29T00:16:39Z</time>
      </trkpt>
      <trkpt lat="47.88226" lon="2.03203">
        <ele>96</ele>
        <time>2021-05-29T00:16:49Z</time>
      </trkpt>
      <trkpt lat="47.8823" lon="2.03214">
        <ele>96</ele>
        <time>2021-05-29T00:16:50Z</time>
      </trkpt>
      <trkpt lat="47.88228" lon="2.03233">
        <ele>96</ele>
        <time>2021-05-29T00:16:52Z</time>
      </trkpt>
      <trkpt lat="47.8827" lon="2.03174">
        <ele>97</ele>
        <time>2021-05-29T00:17:03Z</time>
      </trkpt>
      <trkpt lat="47.88299" lon="2.03138">
        <ele>96</ele>
        <time>2021-05-29T00:17:09Z</time>
      </trkpt>
      <trkpt lat="47.88349" lon="2.03059">
        <ele>95</ele>
        <time>2021-05-29T00:17:22Z</time>
      </trkpt>
      <trkpt lat="47.88299" lon="2.03138">
        <ele>96</ele>
        <time>2021-05-29T00:17:35Z</time>
      </trkpt>
      <trkpt lat="47.8827" lon="2.03174">
        <ele>97</ele>
        <time>2021-05-29T00:17:42Z</time>
      </trkpt>
      <trkpt lat="47.88228" lon="2.03233">
        <ele>96</ele>
        <time>2021-05-29T00:17:52Z</time>
      </trkpt>
      <trkpt lat="47.8823" lon="2.03214">
        <ele>96</ele>
        <time>2021-05-29T00:17:55Z</time>
      </trkpt>
      <trkpt lat="47.88226" lon="2.03203">
        <ele>96</ele>
        <time>2021-05-29T00:17:56Z</time>
      </trkpt>
      <trkpt lat="47.88311" lon="2.03082">
        <ele>95</ele>
        <time>2021-05-29T00:18:17Z</time>
      </trkpt>
      <trkpt lat="47.88347" lon="2.03026">
        <ele>94</ele>
        <time>2021-05-29T00:18:26Z</time>
      </trkpt>
      <trkpt lat="47.88356" lon="2.03018">
        <ele>94</ele>
        <time>2021-05-29T00:18:28Z</time>
      </trkpt>
      <trkpt lat="47.88362" lon="2.03007">
        <ele>93</ele>
        <time>2021-05-29T00:18:30Z</time>
      </trkpt>
      <trkpt lat="47.88443" lon="2.02966">
        <ele>94</ele>
        <time>2021-05-29T00:18:45Z</time>
      </trkpt>
      <trkpt lat="47.88454" lon="2.02958">
        <ele>95</ele>
        <time>2021-05-29T00:18:47Z</time>
      </trkpt>
      <trkpt lat="47.88485" lon="2.02925">
        <ele>95</ele>
        <time>2021-05-29T00:18:54Z</time>
      </trkpt>
      <trkpt lat="47.88541" lon="2.02829">
        <ele>94</ele>
        <time>2021-05-29T00:19:09Z</time>
      </trkpt>
      <trkpt lat="47.88554" lon="2.02816">
        <ele>95</ele>
        <time>2021-05-29T00:19:12Z</time>
      </trkpt>
      <trkpt lat="47.8857" lon="2.0281">
        <ele>96</ele>
        <time>2021-05-29T00:19:15Z</time>
      </trkpt>
      <trkpt lat="47.88576" lon="2.02779">
        <ele>95</ele>
        <time>2021-05-29T00:19:19Z</time>
      </trkpt>
      <trkpt lat="47.8858" lon="2.02774">
        <ele>95</ele>
        <time>2021-05-29T00:19:20Z</time>
      </trkpt>
      <trkpt lat="47.88797" lon="2.02745">
        <ele>97</ele>
        <time>2021-05-29T00:19:58Z</time>
      </trkpt>
      <trkpt lat="47.88903" lon="2.02742">
        <ele>97</ele>
        <time>2021-05-29T00:20:17Z</time>
      </trkpt>
      <trkpt lat="47.88938" lon="2.02738">
        <ele>97</ele>
        <time>2021-05-29T00:20:23Z</time>
      </trkpt>
      <trkpt lat="47.88966" lon="2.02727">
        <ele>97</ele>
        <time>2021-05-29T00:20:29Z</time>
      </trkpt>
      <trkpt lat="47.88997" lon="2.02722">
        <ele>97</ele>
        <time>2021-05-29T00:20:34Z</time>
      </trkpt>
      <trkpt lat="47.8902" lon="2.02723">
        <ele>98</ele>
        <time>2021-05-29T00:20:38Z</time>
      </trkpt>
      <trkpt lat="47.89027" lon="2.02729">
        <ele>98</ele>
        <time>2021-05-29T00:20:40Z</time>
      </trkpt>
      <trkpt lat="47.89044" lon="2.02726">
        <ele>99</ele>
        <time>2021-05-29T00:20:43Z</time>
      </trkpt>
      <trkpt lat="47.89096" lon="2.02708">
        <ele>103</ele>
        <time>2021-05-29T00:20:52Z</time>
      </trkpt>
      <trkpt lat="47.89097" lon="2.02711">
        <ele>103</ele>
        <time>2021-05-29T00:20:53Z</time>
      </trkpt>
      <trkpt lat="47.89113" lon="2.02706">
        <ele>104</ele>
        <time>2021-05-29T00:20:56Z</time>
      </trkpt>
      <trkpt lat="47.89123" lon="2.02728">
        <ele>104</ele>
        <time>2021-05-29T00:20:59Z</time>
      </trkpt>
      <trkpt lat="47.89147" lon="2.02878">
        <ele>105</ele>
        <time>2021-05-29T00:21:17Z</time>
      </trkpt>
      <trkpt lat="47.89164" lon="2.02942">
        <ele>104</ele>
        <time>2021-05-29T00:21:25Z</time>
      </trkpt>
      <trkpt lat="47.89166" lon="2.02957">
        <ele>104</ele>
        <time>2021-05-29T00:21:27Z</time>
      </trkpt>
      <trkpt lat="47.89168" lon="2.0296">
        <ele>103</ele>
        <time>2021-05-29T00:21:28Z</time>
      </trkpt>
      <trkpt lat="47.8917" lon="2.02959">
        <ele>103</ele>
        <time>2021-05-29T00:21:28Z</time>
      </trkpt>
      <trkpt lat="47.89197" lon="2.03046">
        <ele>101</ele>
        <time>2021-05-29T00:21:39Z</time>
      </trkpt>
      <trkpt lat="47.89242" lon="2.03222">
        <ele>101</ele>
        <time>2021-05-29T00:22:02Z</time>
      </trkpt>
      <trkpt lat="47.89287" lon="2.03384">
        <ele>103</ele>
        <time>2021-05-29T00:22:23Z</time>
      </trkpt>
      <trkpt lat="47.89293" lon="2.03397">
        <ele>104</ele>
        <time>2021-05-29T00:22:25Z</time>
      </trkpt>
      <trkpt lat="47.8928" lon="2.03506">
        <ele>108</ele>
        <time>2021-05-29T00:22:38Z</time>
      </trkpt>
      <trkpt lat="47.8928" lon="2.03522">
        <ele>109</ele>
        <time>2021-05-29T00:22:40Z</time>
      </trkpt>
      <trkpt lat="47.89294" lon="2.03634">
        <ele>111</ele>
        <time>2021-05-29T00:22:53Z</time>
      </trkpt>
      <trkpt lat="47.89306" lon="2.03688">
        <ele>111</ele>
        <time>2021-05-29T00:23:00Z</time>
      </trkpt>
      <trkpt lat="47.89318" lon="2.03765">
        <ele>111</ele>
        <time>2021-05-29T00:23:10Z</time>
      </trkpt>
      <trkpt lat="47.89345" lon="2.03854">
        <ele>111</ele>
        <time>2021-05-29T00:23:21Z</time>
      </trkpt>
      <trkpt lat="47.89368" lon="2.04027">
        <ele>111</ele>
        <time>2021-05-29T00:23:42Z</time>
      </trkpt>
      <trkpt lat="47.89369" lon="2.0405">
        <ele>111</ele>
        <time>2021-05-29T00:23:45Z</time>
      </trkpt>
      <trkpt lat="47.89367" lon="2.04018">
        <ele>111</ele>
        <time>2021-05-29T00:23:49Z</time>
      </trkpt>
      <trkpt lat="47.89382" lon="2.04023">
        <ele>111</ele>
        <time>2021-05-29T00:23:52Z</time>
      </trkpt>
      <trkpt lat="47.89394" lon="2.04032">
        <ele>111</ele>
        <time>2021-05-29T00:23:54Z</time>
      </trkpt>
      <trkpt lat="47.89396" lon="2.04041">
        <ele>111</ele>
        <time>2021-05-29T00:23:55Z</time>
      </trkpt>
      <trkpt lat="47.89395" lon="2.04087">
        <ele>110</ele>
        <time>2021-05-29T00:24:01Z</time>
      </trkpt>
      <trkpt lat="47.8937" lon="2.04234">
        <ele>107</ele>
        <time>2021-05-29T00:24:19Z</time>
      </trkpt>
      <trkpt lat="47.89304" lon="2.04765">
        <ele>103</ele>
        <time>2021-05-29T00:25:23Z</time>
      </trkpt>
      <trkpt lat="47.89302" lon="2.04789">
        <ele>103</ele>
        <time>2021-05-29T00:25:26Z</time>
      </trkpt>
      <trkpt lat="47.89304" lon="2.04971">
        <ele>105</ele>
        <time>2021-05-29T00:25:48Z</time>
      </trkpt>
      <trkpt lat="47.893" lon="2.05073">
        <ele>104</ele>
        <time>2021-05-29T00:26:00Z</time>
      </trkpt>
      <trkpt lat="47.89289" lon="2.05141">
        <ele>102</ele>
        <time>2021-05-29T00:26:08Z</time>
      </trkpt>
      <trkpt lat="47.8927" lon="2.05201">
        <ele>101</ele>
        <time>2021-05-29T00:26:16Z</time>
      </trkpt>
      <trkpt lat="47.89229" lon="2.05256">
        <ele>100</ele>
        <time>2021-05-29T00:26:26Z</time>
      </trkpt>
      <trkpt lat="47.8921" lon="2.05218">
        <ele>100</ele>
        <time>2021-05-29T00:26:32Z</time>
      </trkpt>
      <trkpt lat="47.89209" lon="2.0521">
        <ele>100</ele>
        <time>2021-05-29T00:26:33Z</time>
      </trkpt>
      <trkpt lat="47.89237" lon="2.0526">
        <ele>100</ele>
        <time>2021-05-29T00:26:40Z</time>
      </trkpt>
      <trkpt lat="47.89255" lon="2.053">
        <ele>100</ele>
        <time>2021-05-29T00:26:46Z</time>
      </trkpt>
      <trkpt lat="47.89261" lon="2.05322">
        <ele>101</ele>
        <time>2021-05-29T00:26:49Z</time>
      </trkpt>
      <trkpt lat="47.89272" lon="2.05348">
        <ele>101</ele>
        <time>2021-05-29T00:26:53Z</time>
      </trkpt>
      <trkpt lat="47.89298" lon="2.05398">
        <ele>101</ele>
        <time>2021-05-29T00:27:00Z</time>
      </trkpt>
      <trkpt lat="47.89332" lon="2.05443">
        <ele>102</ele>
        <time>2021-05-29T00:27:08Z</time>
      </trkpt>
      <trkpt lat="47.89351" lon="2.05484">
        <ele>103</ele>
        <time>2021-05-29T00:27:14Z</time>
      </trkpt>
      <trkpt lat="47.89332" lon="2.05443">
        <ele>102</ele>
        <time>2021-05-29T00:27:20Z</time>
      </trkpt>
      <trkpt lat="47.89298" lon="2.05398">
        <ele>101</ele>
        <time>2021-05-29T00:27:28Z</time>
      </trkpt>
      <trkpt lat="47.89272" lon="2.05348">
        <ele>101</ele>
        <time>2021-05-29T00:27:36Z</time>
      </trkpt>
      <trkpt lat="47.89261" lon="2.05322">
        <ele>101</ele>
        <time>2021-05-29T00:27:40Z</time>
      </trkpt>
      <trkpt lat="47.89255" lon="2.053">
        <ele>100</ele>
        <time>2021-05-29T00:27:42Z</time>
      </trkpt>
      <trkpt lat="47.89237" lon="2.0526">
        <ele>100</ele>
        <time>2021-05-29T00:27:48Z</time>
      </trkpt>
      <trkpt lat="47.89209" lon="2.0521">
        <ele>100</ele>
        <time>2021-05-29T00:27:56Z</time>
      </trkpt>
      <trkpt lat="47.8921" lon="2.05218">
        <ele>100</ele>
        <time>2021-05-29T00:27:57Z</time>
      </trkpt>
      <trkpt lat="47.89229" lon="2.05256">
        <ele>100</ele>
        <time>2021-05-29T00:28:03Z</time>
      </trkpt>
      <trkpt lat="47.89177" lon="2.05325">
        <ele>102</ele>
        <time>2021-05-29T00:28:15Z</time>
      </trkpt>
      <trkpt lat="47.89192" lon="2.05316">
        <ele>101</ele>
        <time>2021-05-29T00:28:18Z</time>
      </trkpt>
      <trkpt lat="47.89228" lon="2.05282">
        <ele>100</ele>
        <time>2021-05-29T00:28:25Z</time>
      </trkpt>
      <trkpt lat="47.89254" lon="2.05247">
        <ele>100</ele>
        <time>2021-05-29T00:28:32Z</time>
      </trkpt>
      <trkpt lat="47.89263" lon="2.0523">
        <ele>100</ele>
        <time>2021-05-29T00:28:34Z</time>
      </trkpt>
      <trkpt lat="47.89314" lon="2.05325">
        <ele>103</ele>
        <time>2021-05-29T00:28:49Z</time>
      </trkpt>
      <trkpt lat="47.89362" lon="2.05435">
        <ele>103</ele>
        <time>2021-05-29T00:29:04Z</time>
      </trkpt>
      <trkpt lat="47.89372" lon="2.05435">
        <ele>104</ele>
        <time>2021-05-29T00:29:06Z</time>
      </trkpt>
      <trkpt lat="47.8942" lon="2.05418">
        <ele>107</ele>
        <time>2021-05-29T00:29:15Z</time>
      </trkpt>
      <trkpt lat="47.89489" lon="2.054">
        <ele>109</ele>
        <time>2021-05-29T00:29:27Z</time>
      </trkpt>
      <trkpt lat="47.8959" lon="2.05364">
        <ele>110</ele>
        <time>2021-05-29T00:29:46Z</time>
      </trkpt>
      <trkpt lat="47.89639" lon="2.05353">
        <ele>112</ele>
        <time>2021-05-29T00:29:55Z</time>
      </trkpt>
      <trkpt lat="47.89728" lon="2.05347">
        <ele>114</ele>
        <time>2021-05-29T00:30:11Z</time>
      </trkpt>
      <trkpt lat="47.89789" lon="2.0536">
        <ele>115</ele>
        <time>2021-05-29T00:30:22Z</time>
      </trkpt>
      <trkpt lat="47.89987" lon="2.05394">
        <ele>122</ele>
        <time>2021-05-29T00:30:57Z</time>
      </trkpt>
      <trkpt lat="47.90049" lon="2.05393">
        <ele>122</ele>
        <time>2021-05-29T00:31:08Z</time>
      </trkpt>
      <trkpt lat="47.90103" lon="2.05388">
        <ele>121</ele>
        <time>2021-05-29T00:31:18Z</time>
      </trkpt>
      <trkpt lat="47.90145" lon="2.05381">
        <ele>120</ele>
        <time>2021-05-29T00:31:25Z</time>
      </trkpt>
      <trkpt lat="47.90269" lon="2.05344">
        <ele>119</ele>
        <time>2021-05-29T00:31:48Z</time>
      </trkpt>
      <trkpt lat="47.90363" lon="2.05293">
        <ele>117</ele>
        <time>2021-05-29T00:32:05Z</time>
      </trkpt>
      <trkpt lat="47.90402" lon="2.05268">
        <ele>116</ele>
        <time>2021-05-29T00:32:13Z</time>
      </trkpt>
      <trkpt lat="47.90459" lon="2.05246">
        <ele>115</ele>
        <time>2021-05-29T00:32:23Z</time>
      </trkpt>
      <trkpt lat="47.9057" lon="2.05232">
        <ele>113</ele>
        <time>2021-05-29T00:32:43Z</time>
      </trkpt>
      <trkpt lat="47.90741" lon="2.05223">
        <ele>114</ele>
        <time>2021-05-29T00:33:14Z</time>
      </trkpt>
      <trkpt lat="47.91055" lon="2.05219">
        <ele>115</ele>
        <time>2021-05-29T00:34:10Z</time>
      </trkpt>
      <trkpt lat="47.91122" lon="2.05209">
        <ele>118</ele>
        <time>2021-05-29T00:34:22Z</time>
      </trkpt>
      <trkpt lat="47.91255" lon="2.052">
        <ele>116</ele>
        <time>2021-05-29T00:34:45Z</time>
      </trkpt>
      <trkpt lat="47.91405" lon="2.05184">
        <ele>118</ele>
        <time>2021-05-29T00:35:12Z</time>
      </trkpt>
      <trkpt lat="47.9156" lon="2.05172">
        <ele>119</ele>
        <time>2021-05-29T00:35:40Z</time>
      </trkpt>
      <trkpt lat="47.9162" lon="2.05171">
        <ele>119</ele>
        <time>2021-05-29T00:35:50Z</time>
      </trkpt>
      <trkpt lat="47.91686" lon="2.05186">
        <ele>119</ele>
        <time>2021-05-29T00:36:02Z</time>
      </trkpt>
      <trkpt lat="47.91773" lon="2.0518">
        <ele>117</ele>
        <time>2021-05-29T00:36:18Z</time>
      </trkpt>
      <trkpt lat="47.91818" lon="2.05163">
        <ele>115</ele>
        <time>2021-05-29T00:36:26Z</time>
      </trkpt>
      <trkpt lat="47.91971" lon="2.0508">
        <ele>111</ele>
        <time>2021-05-29T00:36:55Z</time>
      </trkpt>
      <trkpt lat="47.92094" lon="2.0502">
        <ele>113</ele>
        <time>2021-05-29T00:37:18Z</time>
      </trkpt>
      <trkpt lat="47.92205" lon="2.04909">
        <ele>113</ele>
        <time>2021-05-29T00:37:42Z</time>
      </trkpt>
      <trkpt lat="47.92247" lon="2.04876">
        <ele>113</ele>
        <time>2021-05-29T00:37:50Z</time>
      </trkpt>
      <trkpt lat="47.92299" lon="2.04814">
        <ele>112</ele>
        <time>2021-05-29T00:38:02Z</time>
      </trkpt>
      <trkpt lat="47.92312" lon="2.04795">
        <ele>112</ele>
        <time>2021-05-29T00:38:05Z</time>
      </trkpt>
      <trkpt lat="47.9232" lon="2.04775">
        <ele>111</ele>
        <time>2021-05-29T00:38:08Z</time>
      </trkpt>
      <trkpt lat="47.92333" lon="2.04722">
        <ele>111</ele>
        <time>2021-05-29T00:38:15Z</time>
      </trkpt>
      <trkpt lat="47.92395" lon="2.04506">
        <ele>108</ele>
        <time>2021-05-29T00:38:43Z</time>
      </trkpt>
      <trkpt lat="47.92567" lon="2.04617">
        <ele>106</ele>
        <time>2021-05-29T00:39:16Z</time>
      </trkpt>
      <trkpt lat="47.92608" lon="2.0463">
        <ele>106</ele>
        <time>2021-05-29T00:39:24Z</time>
      </trkpt>
      <trkpt lat="47.92715" lon="2.04658">
        <ele>105</ele>
        <time>2021-05-29T00:39:43Z</time>
      </trkpt>
      <trkpt lat="47.9275" lon="2.04663">
        <ele>105</ele>
        <time>2021-05-29T00:39:49Z</time>
      </trkpt>
      <trkpt lat="47.92764" lon="2.04661">
        <ele>105</ele>
        <time>2021-05-29T00:39:52Z</time>
      </trkpt>
      <trkpt lat="47.92776" lon="2.04655">
        <ele>106</ele>
        <time>2021-05-29T00:39:54Z</time>
      </trkpt>
      <trkpt lat="47.93051" lon="2.04462">
        <ele>105</ele>
        <time>2021-05-29T00:40:48Z</time>
      </trkpt>
      <trkpt lat="47.9307" lon="2.04451">
        <ele>105</ele>
        <time>2021-05-29T00:40:52Z</time>
      </trkpt>
      <trkpt lat="47.93095" lon="2.04446">
        <ele>106</ele>
        <time>2021-05-29T00:40:56Z</time>
      </trkpt>
      <trkpt lat="47.93183" lon="2.04441">
        <ele>107</ele>
        <time>2021-05-29T00:41:12Z</time>
      </trkpt>
      <trkpt lat="47.93329" lon="2.04437">
        <ele>108</ele>
        <time>2021-05-29T00:41:38Z</time>
      </trkpt>
      <trkpt lat="47.93347" lon="2.04434">
        <ele>107</ele>
        <time>2021-05-29T00:41:41Z</time>
      </trkpt>
      <trkpt lat="47.93356" lon="2.04436">
        <ele>107</ele>
        <time>2021-05-29T00:41:43Z</time>
      </trkpt>
      <trkpt lat="47.93366" lon="2.04445">
        <ele>107</ele>
        <time>2021-05-29T00:41:45Z</time>
      </trkpt>
      <trkpt lat="47.93451" lon="2.04554">
        <ele>107</ele>
        <time>2021-05-29T00:42:05Z</time>
      </trkpt>
      <trkpt lat="47.93511" lon="2.04614">
        <ele>107</ele>
        <time>2021-05-29T00:42:17Z</time>
      </trkpt>
      <trkpt lat="47.93626" lon="2.0476">
        <ele>106</ele>
        <time>2021-05-29T00:42:44Z</time>
      </trkpt>
      <trkpt lat="47.93732" lon="2.049">
        <ele>106</ele>
        <time>2021-05-29T00:43:10Z</time>
      </trkpt>
      <trkpt lat="47.93847" lon="2.0508">
        <ele>108</ele>
        <time>2021-05-29T00:43:39Z</time>
      </trkpt>
      <trkpt lat="47.93881" lon="2.05121">
        <ele>110</ele>
        <time>2021-05-29T00:43:47Z</time>
      </trkpt>
      <trkpt lat="47.9402" lon="2.05258">
        <ele>108</ele>
        <time>2021-05-29T00:44:17Z</time>
      </trkpt>
      <trkpt lat="47.94027" lon="2.05261">
        <ele>108</ele>
        <time>2021-05-29T00:44:18Z</time>
      </trkpt>
      <trkpt lat="47.94043" lon="2.05261">
        <ele>108</ele>
        <time>2021-05-29T00:44:21Z</time>
      </trkpt>
      <trkpt lat="47.94242" lon="2.05184">
        <ele>109</ele>
        <time>2021-05-29T00:44:57Z</time>
      </trkpt>
      <trkpt lat="47.94269" lon="2.05179">
        <ele>109</ele>
        <time>2021-05-29T00:45:02Z</time>
      </trkpt>
      <trkpt lat="47.94325" lon="2.05188">
        <ele>110</ele>
        <time>2021-05-29T00:45:12Z</time>
      </trkpt>
      <trkpt lat="47.94414" lon="2.05207">
        <ele>110</ele>
        <time>2021-05-29T00:45:28Z</time>
      </trkpt>
      <trkpt lat="47.9446" lon="2.05226">
        <ele>111</ele>
        <time>2021-05-29T00:45:37Z</time>
      </trkpt>
      <trkpt lat="47.94577" lon="2.05285">
        <ele>114</ele>
        <time>2021-05-29T00:45:59Z</time>
      </trkpt>
      <trkpt lat="47.94614" lon="2.05296">
        <ele>115</ele>
        <time>2021-05-29T00:46:05Z</time>
      </trkpt>
      <trkpt lat="47.94909" lon="2.05343">
        <ele>114</ele>
        <time>2021-05-29T00:46:58Z</time>
      </trkpt>
      <trkpt lat="47.95038" lon="2.05356">
        <ele>116</ele>
        <time>2021-05-29T00:47:21Z</time>
      </trkpt>
      <trkpt lat="47.95058" lon="2.0536">
        <ele>116</ele>
        <time>2021-05-29T00:47:25Z</time>
      </trkpt>
      <trkpt lat="47.95077" lon="2.05369">
        <ele>116</ele>
        <time>2021-05-29T00:47:28Z</time>
      </trkpt>
      <trkpt lat="47.95163" lon="2.05424">
        <ele>115</ele>
        <time>2021-05-29T00:47:45Z</time>
      </trkpt>
      <trkpt lat="47.95227" lon="2.05459">
        <ele>116</ele>
        <time>2021-05-29T00:47:57Z</time>
      </trkpt>
      <trkpt lat="47.95223" lon="2.05475">
        <ele>116</ele>
        <time>2021-05-29T00:47:59Z</time>
      </trkpt>
      <trkpt lat="47.95227" lon="2.05459">
        <ele>116</ele>
        <time>2021-05-29T00:48:01Z</time>
      </trkpt>
      <trkpt lat="47.95353" lon="2.05522">
        <ele>117</ele>
        <time>2021-05-29T00:48:25Z</time>
      </trkpt>
      <trkpt lat="47.9544" lon="2.05533">
        <ele>114</ele>
        <time>2021-05-29T00:48:40Z</time>
      </trkpt>
      <trkpt lat="47.9547" lon="2.05541">
        <ele>114</ele>
        <time>2021-05-29T00:48:46Z</time>
      </trkpt>
      <trkpt lat="47.95481" lon="2.05541">
        <ele>114</ele>
        <time>2021-05-29T00:48:48Z</time>
      </trkpt>
      <trkpt lat="47.95482" lon="2.05514">
        <ele>113</ele>
        <time>2021-05-29T00:48:51Z</time>
      </trkpt>
      <trkpt lat="47.95522" lon="2.05106">
        <ele>114</ele>
        <time>2021-05-29T00:49:40Z</time>
      </trkpt>
      <trkpt lat="47.95518" lon="2.04989">
        <ele>116</ele>
        <time>2021-05-29T00:49:54Z</time>
      </trkpt>
      <trkpt lat="47.95521" lon="2.04943">
        <ele>115</ele>
        <time>2021-05-29T00:49:59Z</time>
      </trkpt>
      <trkpt lat="47.95567" lon="2.04759">
        <ele>113</ele>
        <time>2021-05-29T00:50:23Z</time>
      </trkpt>
      <trkpt lat="47.95593" lon="2.0455">
        <ele>111</ele>
        <time>2021-05-29T00:50:48Z</time>
      </trkpt>
      <trkpt lat="47.95633" lon="2.04389">
        <ele>111</ele>
        <time>2021-05-29T00:51:09Z</time>
      </trkpt>
      <trkpt lat="47.95664" lon="2.042">
        <ele>110</ele>
        <time>2021-05-29T00:51:32Z</time>
      </trkpt>
      <trkpt lat="47.95674" lon="2.04152">
        <ele>109</ele>
        <time>2021-05-29T00:51:38Z</time>
      </trkpt>
      <trkpt lat="47.95692" lon="2.04104">
        <ele>109</ele>
        <time>2021-05-29T00:51:44Z</time>
      </trkpt>
      <trkpt lat="47.9579" lon="2.03902">
        <ele>108</ele>
        <time>2021-05-29T00:52:14Z</time>
      </trkpt>
      <trkpt lat="47.95798" lon="2.03876">
        <ele>108</ele>
        <time>2021-05-29T00:52:18Z</time>
      </trkpt>
      <trkpt lat="47.95828" lon="2.03728">
        <ele>107</ele>
        <time>2021-05-29T00:52:36Z</time>
      </trkpt>
      <trkpt lat="47.95829" lon="2.03715">
        <ele>107</ele>
        <time>2021-05-29T00:52:38Z</time>
      </trkpt>
      <trkpt lat="47.95824" lon="2.03693">
        <ele>106</ele>
        <time>2021-05-29T00:52:40Z</time>
      </trkpt>
      <trkpt lat="47.95715" lon="2.03457">
        <ele>108</ele>
        <time>2021-05-29T00:53:14Z</time>
      </trkpt>
      <trkpt lat="47.95711" lon="2.03434">
        <ele>108</ele>
        <time>2021-05-29T00:53:17Z</time>
      </trkpt>
      <trkpt lat="47.95712" lon="2.03392">
        <ele>108</ele>
        <time>2021-05-29T00:53:22Z</time>
      </trkpt>
      <trkpt lat="47.95722" lon="2.03328">
        <ele>107</ele>
        <time>2021-05-29T00:53:30Z</time>
      </trkpt>
      <trkpt lat="47.95729" lon="2.03301">
        <ele>107</ele>
        <time>2021-05-29T00:53:34Z</time>
      </trkpt>
      <trkpt lat="47.95752" lon="2.03328">
        <ele>106</ele>
        <time>2021-05-29T00:53:39Z</time>
      </trkpt>
      <trkpt lat="47.95766" lon="2.03321">
        <ele>106</ele>
        <time>2021-05-29T00:53:41Z</time>
      </trkpt>
      <trkpt lat="47.95845" lon="2.03341">
        <ele>107</ele>
        <time>2021-05-29T00:53:56Z</time>
      </trkpt>
      <trkpt lat="47.95867" lon="2.03344">
        <ele>107</ele>
        <time>2021-05-29T00:54:00Z</time>
      </trkpt>
      <trkpt lat="47.95868" lon="2.03286">
        <ele>107</ele>
        <time>2021-05-29T00:54:07Z</time>
      </trkpt>
      <trkpt lat="47.95883" lon="2.03241">
        <ele>106</ele>
        <time>2021-05-29T00:54:13Z</time>
      </trkpt>
      <trkpt lat="47.95948" lon="2.03108">
        <ele>106</ele>
        <time>2021-05-29T00:54:32Z</time>
      </trkpt>
      <trkpt lat="47.96033" lon="2.02832">
        <ele>106</ele>
        <time>2021-05-29T00:55:08Z</time>
      </trkpt>
      <trkpt lat="47.96155" lon="2.02488">
        <ele>112</ele>
        <time>2021-05-29T00:55:55Z</time>
      </trkpt>
      <trkpt lat="47.96201" lon="2.02278">
        <ele>114</ele>
        <time>2021-05-29T00:56:21Z</time>
      </trkpt>
      <trkpt lat="47.96211" lon="2.02222">
        <ele>116</ele>
        <time>2021-05-29T00:56:28Z</time>
      </trkpt>
      <trkpt lat="47.96218" lon="2.02222">
        <ele>116</ele>
        <time>2021-05-29T00:56:29Z</time>
      </trkpt>
      <trkpt lat="47.96241" lon="2.02215">
        <ele>117</ele>
        <time>2021-05-29T00:56:33Z</time>
      </trkpt>
      <trkpt lat="47.96242" lon="2.02208">
        <ele>117</ele>
        <time>2021-05-29T00:56:34Z</time>
      </trkpt>
      <trkpt lat="47.96478" lon="2.01687">
        <ele>126</ele>
        <time>2021-05-29T00:57:49Z</time>
      </trkpt>
      <trkpt lat="47.96492" lon="2.0164">
        <ele>125</ele>
        <time>2021-05-29T00:57:55Z</time>
      </trkpt>
      <trkpt lat="47.96489" lon="2.016">
        <ele>125</ele>
        <time>2021-05-29T00:58:00Z</time>
      </trkpt>
      <trkpt lat="47.96464" lon="2.01515">
        <ele>124</ele>
        <time>2021-05-29T00:58:11Z</time>
      </trkpt>
      <trkpt lat="47.96453" lon="2.01497">
        <ele>124</ele>
        <time>2021-05-29T00:58:14Z</time>
      </trkpt>
      <trkpt lat="47.96447" lon="2.01495">
        <ele>124</ele>
        <time>2021-05-29T00:58:15Z</time>
      </trkpt>
      <trkpt lat="47.963" lon="2.0152">
        <ele>125</ele>
        <time>2021-05-29T00:58:41Z</time>
      </trkpt>
      <trkpt lat="47.96294" lon="2.01519">
        <ele>125</ele>
        <time>2021-05-29T00:58:43Z</time>
      </trkpt>
      <trkpt lat="47.96279" lon="2.0151">
        <ele>125</ele>
        <time>2021-05-29T00:58:45Z</time>
      </trkpt>
      <trkpt lat="47.96246" lon="2.01446">
        <ele>125</ele>
        <time>2021-05-29T00:58:55Z</time>
      </trkpt>
      <trkpt lat="47.9624" lon="2.01437">
        <ele>125</ele>
        <time>2021-05-29T00:58:57Z</time>
      </trkpt>
      <trkpt lat="47.96232" lon="2.01431">
        <ele>125</ele>
        <time>2021-05-29T00:58:58Z</time>
      </trkpt>
      <trkpt lat="47.96228" lon="2.01433">
        <ele>125</ele>
        <time>2021-05-29T00:58:59Z</time>
      </trkpt>
      <trkpt lat="47.96169" lon="2.01499">
        <ele>124</ele>
        <time>2021-05-29T00:59:12Z</time>
      </trkpt>
      <trkpt lat="47.9615" lon="2.01514">
        <ele>124</ele>
        <time>2021-05-29T00:59:16Z</time>
      </trkpt>
      <trkpt lat="47.9613" lon="2.01523">
        <ele>124</ele>
        <time>2021-05-29T00:59:20Z</time>
      </trkpt>
      <trkpt lat="47.96098" lon="2.01529">
        <ele>124</ele>
        <time>2021-05-29T00:59:25Z</time>
      </trkpt>
      <trkpt lat="47.96067" lon="2.01541">
        <ele>124</ele>
        <time>2021-05-29T00:59:31Z</time>
      </trkpt>
      <trkpt lat="47.96052" lon="2.01544">
        <ele>124</ele>
        <time>2021-05-29T00:59:34Z</time>
      </trkpt>
      <trkpt lat="47.96024" lon="2.01545">
        <ele>124</ele>
        <time>2021-05-29T00:59:39Z</time>
      </trkpt>
      <trkpt lat="47.96013" lon="2.01548">
        <ele>124</ele>
        <time>2021-05-29T00:59:41Z</time>
      </trkpt>
      <trkpt lat="47.9598" lon="2.0157">
        <ele>123</ele>
        <time>2021-05-29T00:59:47Z</time>
      </trkpt>
      <trkpt lat="47.95974" lon="2.01481">
        <ele>124</ele>
        <time>2021-05-29T00:59:58Z</time>
      </trkpt>
      <trkpt lat="47.95955" lon="2.01447">
        <ele>125</ele>
        <time>2021-05-29T01:00:03Z</time>
      </trkpt>
      <trkpt lat="47.9593" lon="2.01394">
        <ele>127</ele>
        <time>2021-05-29T01:00:11Z</time>
      </trkpt>
      <trkpt lat="47.95847" lon="2.01297">
        <ele>126</ele>
        <time>2021-05-29T01:00:29Z</time>
      </trkpt>
      <trkpt lat="47.95793" lon="2.01227">
        <ele>123</ele>
        <time>2021-05-29T01:00:42Z</time>
      </trkpt>
      <trkpt lat="47.95789" lon="2.01239">
        <ele>124</ele>
        <time>2021-05-29T01:00:44Z</time>
      </trkpt>
      <trkpt lat="47.95786" lon="2.01237">
        <ele>124</ele>
        <time>2021-05-29T01:00:44Z</time>
      </trkpt>
      <trkpt lat="47.95784" lon="2.01245">
        <ele>124</ele>
        <time>2021-05-29T01:00:45Z</time>
      </trkpt>
      <trkpt lat="47.95786" lon="2.01237">
        <ele>124</ele>
        <time>2021-05-29T01:00:46Z</time>
      </trkpt>
      <trkpt lat="47.95789" lon="2.01239">
        <ele>124</ele>
        <time>2021-05-29T01:00:47Z</time>
      </trkpt>
      <trkpt lat="47.96027" lon="2.00309">
        <ele>122</ele>
        <time>2021-05-29T01:02:46Z</time>
      </trkpt>
      <trkpt lat="47.96058" lon="2.00106">
        <ele>125</ele>
        <time>2021-05-29T01:03:10Z</time>
      </trkpt>
      <trkpt lat="47.96169" lon="1.99595">
        <ele>132</ele>
        <time>2021-05-29T01:04:14Z</time>
      </trkpt>
      <trkpt lat="47.96243" lon="1.99053">
        <ele>121</ele>
        <time>2021-05-29T01:05:20Z</time>
      </trkpt>
      <trkpt lat="47.96276" lon="1.98926">
        <ele>124</ele>
        <time>2021-05-29T01:05:37Z</time>
      </trkpt>
      <trkpt lat="47.96275" lon="1.98844">
        <ele>126</ele>
        <time>2021-05-29T01:05:46Z</time>
      </trkpt>
      <trkpt lat="47.96266" lon="1.98675">
        <ele>128</ele>
        <time>2021-05-29T01:06:07Z</time>
      </trkpt>
      <trkpt lat="47.96243" lon="1.98504">
        <ele>129</ele>
        <time>2021-05-29T01:06:27Z</time>
      </trkpt>
      <trkpt lat="47.9624" lon="1.98466">
        <ele>130</ele>
        <time>2021-05-29T01:06:32Z</time>
      </trkpt>
      <trkpt lat="47.96248" lon="1.98389">
        <ele>130</ele>
        <time>2021-05-29T01:06:41Z</time>
      </trkpt>
      <trkpt lat="47.96277" lon="1.982">
        <ele>132</ele>
        <time>2021-05-29T01:07:04Z</time>
      </trkpt>
      <trkpt lat="47.96284" lon="1.98171">
        <ele>134</ele>
        <time>2021-05-29T01:07:08Z</time>
      </trkpt>
      <trkpt lat="47.96297" lon="1.9814">
        <ele>135</ele>
        <time>2021-05-29T01:07:12Z</time>
      </trkpt>
      <trkpt lat="47.96423" lon="1.97879">
        <ele>135</ele>
        <time>2021-05-29T01:07:51Z</time>
      </trkpt>
      <trkpt lat="47.9644" lon="1.97838">
        <ele>133</ele>
        <time>2021-05-29T01:07:56Z</time>
      </trkpt>
      <trkpt lat="47.96477" lon="1.97794">
        <ele>132</ele>
        <time>2021-05-29T01:08:05Z</time>
      </trkpt>
      <trkpt lat="47.96546" lon="1.97737">
        <ele>131</ele>
        <time>2021-05-29T01:08:19Z</time>
      </trkpt>
      <trkpt lat="47.96585" lon="1.97699">
        <ele>130</ele>
        <time>2021-05-29T01:08:27Z</time>
      </trkpt>
      <trkpt lat="47.96618" lon="1.97662">
        <ele>130</ele>
        <time>2021-05-29T01:08:34Z</time>
      </trkpt>
      <trkpt lat="47.96667" lon="1.97575">
        <ele>129</ele>
        <time>2021-05-29T01:08:48Z</time>
      </trkpt>
      <trkpt lat="47.96679" lon="1.97539">
        <ele>128</ele>
        <time>2021-05-29T01:08:53Z</time>
      </trkpt>
      <trkpt lat="47.9668" lon="1.97514">
        <ele>128</ele>
        <time>2021-05-29T01:08:56Z</time>
      </trkpt>
      <trkpt lat="47.96618" lon="1.97342">
        <ele>128</ele>
        <time>2021-05-29T01:09:19Z</time>
      </trkpt>
      <trkpt lat="47.96603" lon="1.97262">
        <ele>129</ele>
        <time>2021-05-29T01:09:29Z</time>
      </trkpt>
      <trkpt lat="47.96599" lon="1.97109">
        <ele>129</ele>
        <time>2021-05-29T01:09:47Z</time>
      </trkpt>
      <trkpt lat="47.96601" lon="1.97078">
        <ele>129</ele>
        <time>2021-05-29T01:09:51Z</time>
      </trkpt>
      <trkpt lat="47.96605" lon="1.97064">
        <ele>130</ele>
        <time>2021-05-29T01:09:53Z</time>
      </trkpt>
      <trkpt lat="47.9661" lon="1.97057">
        <ele>130</ele>
        <time>2021-05-29T01:09:54Z</time>
      </trkpt>
      <trkpt lat="47.96602" lon="1.97054">
        <ele>130</ele>
        <time>2021-05-29T01:09:55Z</time>
      </trkpt>
      <trkpt lat="47.9659" lon="1.97042">
        <ele>131</ele>
        <time>2021-05-29T01:09:58Z</time>
      </trkpt>
      <trkpt lat="47.96582" lon="1.97038">
        <ele>131</ele>
        <time>2021-05-29T01:09:59Z</time>
      </trkpt>
      <trkpt lat="47.96533" lon="1.97035">
        <ele>131</ele>
        <time>2021-05-29T01:10:08Z</time>
      </trkpt>
      <trkpt lat="47.96516" lon="1.97032">
        <ele>131</ele>
        <time>2021-05-29T01:10:11Z</time>
      </trkpt>
      <trkpt lat="47.96498" lon="1.97025">
        <ele>131</ele>
        <time>2021-05-29T01:10:15Z</time>
      </trkpt>
      <trkpt lat="47.96486" lon="1.97016">
        <ele>131</ele>
        <time>2021-05-29T01:10:17Z</time>
      </trkpt>
      <trkpt lat="47.96467" lon="1.96994">
        <ele>131</ele>
        <time>2021-05-29T01:10:21Z</time>
      </trkpt>
      <trkpt lat="47.96405" lon="1.96946">
        <ele>130</ele>
        <time>2021-05-29T01:10:34Z</time>
      </trkpt>
      <trkpt lat="47.96402" lon="1.96935">
        <ele>129</ele>
        <time>2021-05-29T01:10:35Z</time>
      </trkpt>
      <trkpt lat="47.96405" lon="1.96855">
        <ele>130</ele>
        <time>2021-05-29T01:10:45Z</time>
      </trkpt>
      <trkpt lat="47.96403" lon="1.96855">
        <ele>130</ele>
        <time>2021-05-29T01:10:45Z</time>
      </trkpt>
      <trkpt lat="47.96405" lon="1.96855">
        <ele>130</ele>
        <time>2021-05-29T01:10:45Z</time>
      </trkpt>
      <trkpt lat="47.96402" lon="1.96935">
        <ele>129</ele>
        <time>2021-05-29T01:10:55Z</time>
      </trkpt>
      <trkpt lat="47.96405" lon="1.96946">
        <ele>130</ele>
        <time>2021-05-29T01:10:56Z</time>
      </trkpt>
      <trkpt lat="47.96467" lon="1.96994">
        <ele>131</ele>
        <time>2021-05-29T01:11:09Z</time>
      </trkpt>
      <trkpt lat="47.96486" lon="1.97016">
        <ele>131</ele>
        <time>2021-05-29T01:11:13Z</time>
      </trkpt>
      <trkpt lat="47.96498" lon="1.97025">
        <ele>131</ele>
        <time>2021-05-29T01:11:15Z</time>
      </trkpt>
      <trkpt lat="47.96516" lon="1.97032">
        <ele>131</ele>
        <time>2021-05-29T01:11:19Z</time>
      </trkpt>
      <trkpt lat="47.96533" lon="1.97035">
        <ele>131</ele>
        <time>2021-05-29T01:11:22Z</time>
      </trkpt>
      <trkpt lat="47.96574" lon="1.97038">
        <ele>131</ele>
        <time>2021-05-29T01:11:29Z</time>
      </trkpt>
      <trkpt lat="47.96591" lon="1.97051">
        <ele>131</ele>
        <time>2021-05-29T01:11:32Z</time>
      </trkpt>
      <trkpt lat="47.96603" lon="1.9707">
        <ele>130</ele>
        <time>2021-05-29T01:11:36Z</time>
      </trkpt>
      <trkpt lat="47.96599" lon="1.97109">
        <ele>129</ele>
        <time>2021-05-29T01:11:40Z</time>
      </trkpt>
      <trkpt lat="47.96601" lon="1.97237">
        <ele>129</ele>
        <time>2021-05-29T01:11:56Z</time>
      </trkpt>
      <trkpt lat="47.9661" lon="1.97303">
        <ele>128</ele>
        <time>2021-05-29T01:12:04Z</time>
      </trkpt>
      <trkpt lat="47.96618" lon="1.97342">
        <ele>128</ele>
        <time>2021-05-29T01:12:08Z</time>
      </trkpt>
      <trkpt lat="47.9668" lon="1.97514">
        <ele>128</ele>
        <time>2021-05-29T01:12:32Z</time>
      </trkpt>
      <trkpt lat="47.96677" lon="1.97549">
        <ele>128</ele>
        <time>2021-05-29T01:12:36Z</time>
      </trkpt>
      <trkpt lat="47.96667" lon="1.97575">
        <ele>129</ele>
        <time>2021-05-29T01:12:39Z</time>
      </trkpt>
      <trkpt lat="47.96618" lon="1.97662">
        <ele>130</ele>
        <time>2021-05-29T01:12:53Z</time>
      </trkpt>
      <trkpt lat="47.96585" lon="1.97699">
        <ele>130</ele>
        <time>2021-05-29T01:13:00Z</time>
      </trkpt>
      <trkpt lat="47.96546" lon="1.97737">
        <ele>131</ele>
        <time>2021-05-29T01:13:09Z</time>
      </trkpt>
      <trkpt lat="47.96477" lon="1.97794">
        <ele>132</ele>
        <time>2021-05-29T01:13:23Z</time>
      </trkpt>
      <trkpt lat="47.9644" lon="1.97838">
        <ele>133</ele>
        <time>2021-05-29T01:13:31Z</time>
      </trkpt>
      <trkpt lat="47.96423" lon="1.97879">
        <ele>135</ele>
        <time>2021-05-29T01:13:37Z</time>
      </trkpt>
      <trkpt lat="47.96297" lon="1.9814">
        <ele>135</ele>
        <time>2021-05-29T01:14:15Z</time>
      </trkpt>
      <trkpt lat="47.96288" lon="1.98161">
        <ele>134</ele>
        <time>2021-05-29T01:14:18Z</time>
      </trkpt>
      <trkpt lat="47.96292" lon="1.98164">
        <ele>134</ele>
        <time>2021-05-29T01:14:19Z</time>
      </trkpt>
      <trkpt lat="47.96274" lon="1.98158">
        <ele>134</ele>
        <time>2021-05-29T01:14:22Z</time>
      </trkpt>
      <trkpt lat="47.96276" lon="1.98154">
        <ele>134</ele>
        <time>2021-05-29T01:14:23Z</time>
      </trkpt>
      <trkpt lat="47.96284" lon="1.98171">
        <ele>134</ele>
        <time>2021-05-29T01:14:25Z</time>
      </trkpt>
      <trkpt lat="47.96277" lon="1.982">
        <ele>132</ele>
        <time>2021-05-29T01:14:29Z</time>
      </trkpt>
      <trkpt lat="47.96248" lon="1.98389">
        <ele>130</ele>
        <time>2021-05-29T01:14:52Z</time>
      </trkpt>
      <trkpt lat="47.9624" lon="1.98466">
        <ele>130</ele>
        <time>2021-05-29T01:15:01Z</time>
      </trkpt>
      <trkpt lat="47.96243" lon="1.98504">
        <ele>129</ele>
        <time>2021-05-29T01:15:06Z</time>
      </trkpt>
      <trkpt lat="47.96266" lon="1.98675">
        <ele>128</ele>
        <time>2021-05-29T01:15:27Z</time>
      </trkpt>
      <trkpt lat="47.96275" lon="1.98844">
        <ele>126</ele>
        <time>2021-05-29T01:15:47Z</time>
      </trkpt>
      <trkpt lat="47.96276" lon="1.98926">
        <ele>124</ele>
        <time>2021-05-29T01:15:57Z</time>
      </trkpt>
      <trkpt lat="47.96243" lon="1.99053">
        <ele>121</ele>
        <time>2021-05-29T01:16:13Z</time>
      </trkpt>
      <trkpt lat="47.96169" lon="1.99595">
        <ele>132</ele>
        <time>2021-05-29T01:17:19Z</time>
      </trkpt>
      <trkpt lat="47.96058" lon="2.00106">
        <ele>125</ele>
        <time>2021-05-29T01:18:23Z</time>
      </trkpt>
      <trkpt lat="47.96032" lon="2.00286">
        <ele>122</ele>
        <time>2021-05-29T01:18:45Z</time>
      </trkpt>
      <trkpt lat="47.95793" lon="2.01227">
        <ele>123</ele>
        <time>2021-05-29T01:20:45Z</time>
      </trkpt>
      <trkpt lat="47.95717" lon="2.01137">
        <ele>122</ele>
        <time>2021-05-29T01:21:02Z</time>
      </trkpt>
      <trkpt lat="47.95703" lon="2.01115">
        <ele>122</ele>
        <time>2021-05-29T01:21:05Z</time>
      </trkpt>
      <trkpt lat="47.95667" lon="2.01047">
        <ele>121</ele>
        <time>2021-05-29T01:21:16Z</time>
      </trkpt>
      <trkpt lat="47.95636" lon="2.00999">
        <ele>121</ele>
        <time>2021-05-29T01:21:24Z</time>
      </trkpt>
      <trkpt lat="47.95559" lon="2.00892">
        <ele>121</ele>
        <time>2021-05-29T01:21:42Z</time>
      </trkpt>
      <trkpt lat="47.95507" lon="2.00824">
        <ele>124</ele>
        <time>2021-05-29T01:21:55Z</time>
      </trkpt>
      <trkpt lat="47.95477" lon="2.00793">
        <ele>125</ele>
        <time>2021-05-29T01:22:01Z</time>
      </trkpt>
      <trkpt lat="47.95442" lon="2.00762">
        <ele>125</ele>
        <time>2021-05-29T01:22:09Z</time>
      </trkpt>
      <trkpt lat="47.95406" lon="2.00739">
        <ele>126</ele>
        <time>2021-05-29T01:22:15Z</time>
      </trkpt>
      <trkpt lat="47.95386" lon="2.00733">
        <ele>126</ele>
        <time>2021-05-29T01:22:19Z</time>
      </trkpt>
      <trkpt lat="47.95358" lon="2.00738">
        <ele>125</ele>
        <time>2021-05-29T01:22:24Z</time>
      </trkpt>
      <trkpt lat="47.95073" lon="2.00811">
        <ele>116</ele>
        <time>2021-05-29T01:23:16Z</time>
      </trkpt>
      <trkpt lat="47.9505" lon="2.00824">
        <ele>116</ele>
        <time>2021-05-29T01:23:20Z</time>
      </trkpt>
      <trkpt lat="47.95036" lon="2.00835">
        <ele>116</ele>
        <time>2021-05-29T01:23:23Z</time>
      </trkpt>
      <trkpt lat="47.95015" lon="2.00863">
        <ele>116</ele>
        <time>2021-05-29T01:23:28Z</time>
      </trkpt>
      <trkpt lat="47.95" lon="2.00866">
        <ele>116</ele>
        <time>2021-05-29T01:23:30Z</time>
      </trkpt>
      <trkpt lat="47.94986" lon="2.00864">
        <ele>115</ele>
        <time>2021-05-29T01:23:33Z</time>
      </trkpt>
      <trkpt lat="47.94967" lon="2.0087">
        <ele>115</ele>
        <time>2021-05-29T01:23:36Z</time>
      </trkpt>
      <trkpt lat="47.94932" lon="2.00897">
        <ele>114</ele>
        <time>2021-05-29T01:23:43Z</time>
      </trkpt>
      <trkpt lat="47.94897" lon="2.00913">
        <ele>114</ele>
        <time>2021-05-29T01:23:50Z</time>
      </trkpt>
      <trkpt lat="47.94885" lon="2.00912">
        <ele>113</ele>
        <time>2021-05-29T01:23:52Z</time>
      </trkpt>
      <trkpt lat="47.94867" lon="2.00936">
        <ele>113</ele>
        <time>2021-05-29T01:23:56Z</time>
      </trkpt>
      <trkpt lat="47.94822" lon="2.00957">
        <ele>112</ele>
        <time>2021-05-29T01:24:05Z</time>
      </trkpt>
      <trkpt lat="47.94801" lon="2.00962">
        <ele>112</ele>
        <time>2021-05-29T01:24:09Z</time>
      </trkpt>
      <trkpt lat="47.94582" lon="2.00952">
        <ele>110</ele>
        <time>2021-05-29T01:24:48Z</time>
      </trkpt>
      <trkpt lat="47.94466" lon="2.00943">
        <ele>108</ele>
        <time>2021-05-29T01:25:08Z</time>
      </trkpt>
      <trkpt lat="47.94445" lon="2.00945">
        <ele>107</ele>
        <time>2021-05-29T01:25:12Z</time>
      </trkpt>
      <trkpt lat="47.94428" lon="2.00952">
        <ele>107</ele>
        <time>2021-05-29T01:25:15Z</time>
      </trkpt>
      <trkpt lat="47.94414" lon="2.00962">
        <ele>106</ele>
        <time>2021-05-29T01:25:18Z</time>
      </trkpt>
      <trkpt lat="47.94344" lon="2.01041">
        <ele>105</ele>
        <time>2021-05-29T01:25:33Z</time>
      </trkpt>
      <trkpt lat="47.94348" lon="2.01052">
        <ele>105</ele>
        <time>2021-05-29T01:25:35Z</time>
      </trkpt>
      <trkpt lat="47.94358" lon="2.0104">
        <ele>105</ele>
        <time>2021-05-29T01:25:37Z</time>
      </trkpt>
      <trkpt lat="47.94348" lon="2.01052">
        <ele>105</ele>
        <time>2021-05-29T01:25:40Z</time>
      </trkpt>
      <trkpt lat="47.94344" lon="2.01041">
        <ele>105</ele>
        <time>2021-05-29T01:25:41Z</time>
      </trkpt>
      <trkpt lat="47.94333" lon="2.01053">
        <ele>105</ele>
        <time>2021-05-29T01:25:43Z</time>
      </trkpt>
      <trkpt lat="47.9431" lon="2.01068">
        <ele>106</ele>
        <time>2021-05-29T01:25:48Z</time>
      </trkpt>
      <trkpt lat="47.94302" lon="2.01061">
        <ele>106</ele>
        <time>2021-05-29T01:25:50Z</time>
      </trkpt>
      <trkpt lat="47.94289" lon="2.01059">
        <ele>106</ele>
        <time>2021-05-29T01:25:52Z</time>
      </trkpt>
      <trkpt lat="47.94273" lon="2.01071">
        <ele>107</ele>
        <time>2021-05-29T01:25:55Z</time>
      </trkpt>
      <trkpt lat="47.94232" lon="2.01041">
        <ele>107</ele>
        <time>2021-05-29T01:26:03Z</time>
      </trkpt>
      <trkpt lat="47.93801" lon="2.00688">
        <ele>110</ele>
        <time>2021-05-29T01:27:31Z</time>
      </trkpt>
      <trkpt lat="47.93759" lon="2.00645">
        <ele>110</ele>
        <time>2021-05-29T01:27:40Z</time>
      </trkpt>
      <trkpt lat="47.93729" lon="2.00605">
        <ele>111</ele>
        <time>2021-05-29T01:27:47Z</time>
      </trkpt>
      <trkpt lat="47.93705" lon="2.00579">
        <ele>112</ele>
        <time>2021-05-29T01:27:52Z</time>
      </trkpt>
      <trkpt lat="47.93697" lon="2.00558">
        <ele>111</ele>
        <time>2021-05-29T01:27:55Z</time>
      </trkpt>
      <trkpt lat="47.93693" lon="2.00534">
        <ele>110</ele>
        <time>2021-05-29T01:27:58Z</time>
      </trkpt>
      <trkpt lat="47.93684" lon="2.00522">
        <ele>109</ele>
        <time>2021-05-29T01:28:00Z</time>
      </trkpt>
      <trkpt lat="47.93675" lon="2.00519">
        <ele>108</ele>
        <time>2021-05-29T01:28:02Z</time>
      </trkpt>
      <trkpt lat="47.93665" lon="2.00523">
        <ele>108</ele>
        <time>2021-05-29T01:28:04Z</time>
      </trkpt>
      <trkpt lat="47.93656" lon="2.00536">
        <ele>109</ele>
        <time>2021-05-29T01:28:06Z</time>
      </trkpt>
      <trkpt lat="47.9364" lon="2.00539">
        <ele>108</ele>
        <time>2021-05-29T01:28:09Z</time>
      </trkpt>
      <trkpt lat="47.9363" lon="2.00535">
        <ele>108</ele>
        <time>2021-05-29T01:28:11Z</time>
      </trkpt>
      <trkpt lat="47.93592" lon="2.00505">
        <ele>108</ele>
        <time>2021-05-29T01:28:18Z</time>
      </trkpt>
      <trkpt lat="47.93557" lon="2.00483">
        <ele>108</ele>
        <time>2021-05-29T01:28:25Z</time>
      </trkpt>
      <trkpt lat="47.93541" lon="2.00476">
        <ele>109</ele>
        <time>2021-05-29T01:28:28Z</time>
      </trkpt>
      <trkpt lat="47.93159" lon="2.00165">
        <ele>113</ele>
        <time>2021-05-29T01:29:45Z</time>
      </trkpt>
      <trkpt lat="47.93063" lon="2.0009">
        <ele>116</ele>
        <time>2021-05-29T01:30:05Z</time>
      </trkpt>
      <trkpt lat="47.93011" lon="2.00061">
        <ele>119</ele>
        <time>2021-05-29T01:30:15Z</time>
      </trkpt>
      <trkpt lat="47.9299" lon="2.00043">
        <ele>119</ele>
        <time>2021-05-29T01:30:19Z</time>
      </trkpt>
      <trkpt lat="47.92968" lon="2.00017">
        <ele>118</ele>
        <time>2021-05-29T01:30:24Z</time>
      </trkpt>
      <trkpt lat="47.92963" lon="2.00003">
        <ele>118</ele>
        <time>2021-05-29T01:30:26Z</time>
      </trkpt>
      <trkpt lat="47.92965" lon="1.99997">
        <ele>118</ele>
        <time>2021-05-29T01:30:26Z</time>
      </trkpt>
      <trkpt lat="47.92962" lon="1.99979">
        <ele>118</ele>
        <time>2021-05-29T01:30:29Z</time>
      </trkpt>
      <trkpt lat="47.92957" lon="1.99969">
        <ele>118</ele>
        <time>2021-05-29T01:30:30Z</time>
      </trkpt>
      <trkpt lat="47.92948" lon="1.99961">
        <ele>118</ele>
        <time>2021-05-29T01:30:32Z</time>
      </trkpt>
      <trkpt lat="47.92934" lon="1.99961">
        <ele>118</ele>
        <time>2021-05-29T01:30:35Z</time>
      </trkpt>
      <trkpt lat="47.92928" lon="1.99965">
        <ele>119</ele>
        <time>2021-05-29T01:30:36Z</time>
      </trkpt>
      <trkpt lat="47.92915" lon="1.99958">
        <ele>118</ele>
        <time>2021-05-29T01:30:38Z</time>
      </trkpt>
      <trkpt lat="47.92868" lon="1.99914">
        <ele>116</ele>
        <time>2021-05-29T01:30:48Z</time>
      </trkpt>
      <trkpt lat="47.92817" lon="1.99858">
        <ele>116</ele>
        <time>2021-05-29T01:30:59Z</time>
      </trkpt>
      <trkpt lat="47.92527" lon="1.99387">
        <ele>115</ele>
        <time>2021-05-29T01:32:16Z</time>
      </trkpt>
      <trkpt lat="47.92472" lon="1.99278">
        <ele>116</ele>
        <time>2021-05-29T01:32:32Z</time>
      </trkpt>
      <trkpt lat="47.92476" lon="1.99261">
        <ele>116</ele>
        <time>2021-05-29T01:32:34Z</time>
      </trkpt>
      <trkpt lat="47.92475" lon="1.99244">
        <ele>116</ele>
        <time>2021-05-29T01:32:36Z</time>
      </trkpt>
      <trkpt lat="47.92466" lon="1.99222">
        <ele>116</ele>
        <time>2021-05-29T01:32:39Z</time>
      </trkpt>
      <trkpt lat="47.92454" lon="1.99212">
        <ele>116</ele>
        <time>2021-05-29T01:32:42Z</time>
      </trkpt>
      <trkpt lat="47.92447" lon="1.9921">
        <ele>116</ele>
        <time>2021-05-29T01:32:43Z</time>
      </trkpt>
      <trkpt lat="47.92432" lon="1.99214">
        <ele>116</ele>
        <time>2021-05-29T01:32:46Z</time>
      </trkpt>
      <trkpt lat="47.9242" lon="1.992">
        <ele>116</ele>
        <time>2021-05-29T01:32:48Z</time>
      </trkpt>
      <trkpt lat="47.92365" lon="1.99114">
        <ele>115</ele>
        <time>2021-05-29T01:33:02Z</time>
      </trkpt>
      <trkpt lat="47.92354" lon="1.99104">
        <ele>115</ele>
        <time>2021-05-29T01:33:05Z</time>
      </trkpt>
      <trkpt lat="47.92315" lon="1.99037">
        <ele>116</ele>
        <time>2021-05-29T01:33:15Z</time>
      </trkpt>
      <trkpt lat="47.91998" lon="1.98523">
        <ele>114</ele>
        <time>2021-05-29T01:34:39Z</time>
      </trkpt>
      <trkpt lat="47.91976" lon="1.98472">
        <ele>114</ele>
        <time>2021-05-29T01:34:46Z</time>
      </trkpt>
      <trkpt lat="47.91831" lon="1.98094">
        <ele>111</ele>
        <time>2021-05-29T01:35:38Z</time>
      </trkpt>
      <trkpt lat="47.91706" lon="1.97776">
        <ele>112</ele>
        <time>2021-05-29T01:36:22Z</time>
      </trkpt>
      <trkpt lat="47.91703" lon="1.9777">
        <ele>112</ele>
        <time>2021-05-29T01:36:23Z</time>
      </trkpt>
      <trkpt lat="47.91699" lon="1.97773">
        <ele>112</ele>
        <time>2021-05-29T01:36:23Z</time>
      </trkpt>
      <trkpt lat="47.91694" lon="1.9776">
        <ele>112</ele>
        <time>2021-05-29T01:36:25Z</time>
      </trkpt>
      <trkpt lat="47.91686" lon="1.97751">
        <ele>112</ele>
        <time>2021-05-29T01:36:27Z</time>
      </trkpt>
      <trkpt lat="47.91674" lon="1.97749">
        <ele>112</ele>
        <time>2021-05-29T01:36:29Z</time>
      </trkpt>
      <trkpt lat="47.91673" lon="1.97743">
        <ele>112</ele>
        <time>2021-05-29T01:36:30Z</time>
      </trkpt>
      <trkpt lat="47.9146" lon="1.97798">
        <ele>112</ele>
        <time>2021-05-29T01:37:08Z</time>
      </trkpt>
      <trkpt lat="47.91459" lon="1.97789">
        <ele>111</ele>
        <time>2021-05-29T01:37:09Z</time>
      </trkpt>
      <trkpt lat="47.91448" lon="1.97783">
        <ele>111</ele>
        <time>2021-05-29T01:37:11Z</time>
      </trkpt>
      <trkpt lat="47.9144" lon="1.97794">
        <ele>111</ele>
        <time>2021-05-29T01:37:13Z</time>
      </trkpt>
      <trkpt lat="47.91336" lon="1.97817">
        <ele>111</ele>
        <time>2021-05-29T01:37:32Z</time>
      </trkpt>
      <trkpt lat="47.91258" lon="1.97818">
        <ele>111</ele>
        <time>2021-05-29T01:37:46Z</time>
      </trkpt>
      <trkpt lat="47.9122" lon="1.97809">
        <ele>111</ele>
        <time>2021-05-29T01:37:53Z</time>
      </trkpt>
      <trkpt lat="47.91202" lon="1.97807">
        <ele>111</ele>
        <time>2021-05-29T01:37:56Z</time>
      </trkpt>
      <trkpt lat="47.91189" lon="1.97801">
        <ele>111</ele>
        <time>2021-05-29T01:37:58Z</time>
      </trkpt>
      <trkpt lat="47.91184" lon="1.97793">
        <ele>111</ele>
        <time>2021-05-29T01:38:00Z</time>
      </trkpt>
      <trkpt lat="47.91178" lon="1.97795">
        <ele>111</ele>
        <time>2021-05-29T01:38:01Z</time>
      </trkpt>
      <trkpt lat="47.91162" lon="1.97791">
        <ele>111</ele>
        <time>2021-05-29T01:38:04Z</time>
      </trkpt>
      <trkpt lat="47.91108" lon="1.97762">
        <ele>110</ele>
        <time>2021-05-29T01:38:14Z</time>
      </trkpt>
      <trkpt lat="47.91022" lon="1.97705">
        <ele>110</ele>
        <time>2021-05-29T01:38:31Z</time>
      </trkpt>
      <trkpt lat="47.91016" lon="1.97696">
        <ele>110</ele>
        <time>2021-05-29T01:38:32Z</time>
      </trkpt>
      <trkpt lat="47.91012" lon="1.97683">
        <ele>111</ele>
        <time>2021-05-29T01:38:34Z</time>
      </trkpt>
      <trkpt lat="47.91007" lon="1.97681">
        <ele>111</ele>
        <time>2021-05-29T01:38:35Z</time>
      </trkpt>
      <trkpt lat="47.91003" lon="1.97684">
        <ele>111</ele>
        <time>2021-05-29T01:38:36Z</time>
      </trkpt>
      <trkpt lat="47.90971" lon="1.97668">
        <ele>111</ele>
        <time>2021-05-29T01:38:42Z</time>
      </trkpt>
      <trkpt lat="47.90949" lon="1.97662">
        <ele>110</ele>
        <time>2021-05-29T01:38:46Z</time>
      </trkpt>
      <trkpt lat="47.90943" lon="1.97666">
        <ele>110</ele>
        <time>2021-05-29T01:38:47Z</time>
      </trkpt>
      <trkpt lat="47.90932" lon="1.97663">
        <ele>110</ele>
        <time>2021-05-29T01:38:49Z</time>
      </trkpt>
      <trkpt lat="47.90863" lon="1.97632">
        <ele>111</ele>
        <time>2021-05-29T01:39:02Z</time>
      </trkpt>
      <trkpt lat="47.90858" lon="1.97653">
        <ele>111</ele>
        <time>2021-05-29T01:39:04Z</time>
      </trkpt>
      <trkpt lat="47.90855" lon="1.97651">
        <ele>111</ele>
        <time>2021-05-29T01:39:05Z</time>
      </trkpt>
      <trkpt lat="47.90856" lon="1.97643">
        <ele>111</ele>
        <time>2021-05-29T01:39:06Z</time>
      </trkpt>
      <trkpt lat="47.90855" lon="1.97651">
        <ele>111</ele>
        <time>2021-05-29T01:39:07Z</time>
      </trkpt>
      <trkpt lat="47.90858" lon="1.97653">
        <ele>111</ele>
        <time>2021-05-29T01:39:07Z</time>
      </trkpt>
      <trkpt lat="47.90865" lon="1.97618">
        <ele>110</ele>
        <time>2021-05-29T01:39:12Z</time>
      </trkpt>
      <trkpt lat="47.90865" lon="1.97577">
        <ele>110</ele>
        <time>2021-05-29T01:39:17Z</time>
      </trkpt>
      <trkpt lat="47.90821" lon="1.97031">
        <ele>107</ele>
        <time>2021-05-29T01:40:22Z</time>
      </trkpt>
      <trkpt lat="47.90814" lon="1.96915">
        <ele>106</ele>
        <time>2021-05-29T01:40:36Z</time>
      </trkpt>
      <trkpt lat="47.90814" lon="1.96892">
        <ele>106</ele>
        <time>2021-05-29T01:40:39Z</time>
      </trkpt>
      <trkpt lat="47.90821" lon="1.96856">
        <ele>104</ele>
        <time>2021-05-29T01:40:43Z</time>
      </trkpt>
      <trkpt lat="47.90818" lon="1.96845">
        <ele>104</ele>
        <time>2021-05-29T01:40:45Z</time>
      </trkpt>
      <trkpt lat="47.90809" lon="1.9683">
        <ele>104</ele>
        <time>2021-05-29T01:40:47Z</time>
      </trkpt>
      <trkpt lat="47.90792" lon="1.96666">
        <ele>104</ele>
        <time>2021-05-29T01:41:07Z</time>
      </trkpt>
      <trkpt lat="47.9077" lon="1.96391">
        <ele>105</ele>
        <time>2021-05-29T01:41:40Z</time>
      </trkpt>
      <trkpt lat="47.90889" lon="1.9637">
        <ele>108</ele>
        <time>2021-05-29T01:42:01Z</time>
      </trkpt>
      <trkpt lat="47.9098" lon="1.96369">
        <ele>109</ele>
        <time>2021-05-29T01:42:17Z</time>
      </trkpt>
      <trkpt lat="47.90972" lon="1.9616">
        <ele>109</ele>
        <time>2021-05-29T01:42:42Z</time>
      </trkpt>
      <trkpt lat="47.91004" lon="1.96162">
        <ele>110</ele>
        <time>2021-05-29T01:42:48Z</time>
      </trkpt>
    </trkseg>
  </trk>
</gpx>